Realtime Recorded Weather Data Updated from {{ today | date : "dd/MM/y @ 8:30"}} AM To {{ today | date : "dd/MM/y @ hh:00 a" }}

SNo ID District Mandal Location Cum_Rainfall(mm) Temperature(C) Humidity(%) Wind Speed(k/hr) Pressure Last Updated
13095 Parvathipuram Manyam Salur AnganwadiCenter_P.N Boddavalasa_ARG 22.25 0SNI 0SNI 0SNI 0SNI 22/06/2024 23:00
14087 Krishna Unguturu Nandamuru 22.0 27.1 89.8 0.0 0 NA 22/06/2024 23:00
13114 Kurnool Gudur PumpHouse_West BC Colony_ARG 15.75 0SNI 0SNI 0SNI 0SNI 22/06/2024 23:00
10408 Palnadu Machavaram Machavaram 15.0 28.14 100.0 0 NA 0 NA 22/06/2024 23:00
11134 Parvathipuram Manyam Komarada Komarada 13.25 26.87 95.65 0.0 986.9 22/06/2024 23:00
13333 Y.S.R Proddutur MuncipalOffice_ARG 13.0 0SNI 0SNI 0SNI 0SNI 22/06/2024 23:00
14017 Parvathipuram Manyam Makkuva Khavirivalasa 13.0 26.2 90.9 1.29 0 NA 22/06/2024 23:00
10361 Vizianagaram Badangi Gjarayunivalasa 12.75 25.99 91.16 0.0 986.7 22/06/2024 23:00
13328 Y.S.R S.Mydukur MPPSchool_Lingaladinne_ARG 12.5 0SNI 0SNI 0SNI 0SNI 22/06/2024 23:00
13104 Kurnool Gudur MuncipalOffice_kurnoolRoad_ARG 11.5 0SNI 0SNI 0SNI 0SNI 22/06/2024 23:00
12336 Guntur Thulluru Thullur_ARG 10.5 0SNI 0SNI 0SNI 0SNI 22/06/2024 23:00
12316 Kakinada Pedapudi Pedapudi_ARG 10.25 0SNI 0SNI 0SNI 0SNI 22/06/2024 23:00
14011 Vizianagaram Dattirajeru Pappala Lingalavalasa 9.5 28.1 85.59 0.0 0 NA 22/06/2024 23:00
13116 Kurnool Gudur MarketYard_ARG 9.5 0SNI 0SNI 0SNI 0SNI 22/06/2024 23:00
11555 Annamayya Beerongi Kothakota Kotavooru 9.25 27.26 71.96 3.18 0SNI 22/06/2024 20:00
14376 Kurnool Aspari Mulugundham 8.0 26.79 80.4 0.8 0 NA 22/06/2024 23:00
13211 NTR Jaggaiahpeta S.G.SCollege_Canteen_ARG 8.0 0SNI 0SNI 0SNI 0SNI 22/06/2024 23:00
14076 NTR Vatsavai Mangolu 7.5 27.7 93.69 0.0 0 NA 22/06/2024 23:00
11753 Eluru Chintalapudi Allipalli 7.25 0 NA 100.0 0.0 0SNI 22/06/2024 23:00
12454 Vizianagaram Merakamudidam Merakamudidam_ARG 6.75 0SNI 0SNI 0SNI 0SNI 22/06/2024 23:00
14083 Krishna Pedana Penumalli 6.5 28.0 86.69 0.0 0 NA 22/06/2024 23:00
13350 Y.S.R Pulivendula Shilparamam_ARG 6.5 0SNI 0SNI 0SNI 0SNI 22/06/2024 23:00
10362 Srikakulam Vajrapukotturu Vajrapukothuru 6.5 32.1 81.3 0 NA 0 NA 22/06/2024 13:00
10347 Parvathipuram Manyam Makkuva Makkuva 6.25 25.38 92.64 0.0 984.6 22/06/2024 23:00
13224 Eluru Jangareddigudem MPPGirlsSchool_ARG 6.0 0SNI 0SNI 0SNI 0SNI 22/06/2024 23:00
13324 Y.S.R S.Mydukur DegreeCollege_ARG 5.5 0SNI 0SNI 0SNI 0SNI 22/06/2024 23:00
14407 Kurnool Krishnagiri Tallagokulapadu 5.5 29.79 68.19 9.19 0 NA 22/06/2024 23:00
12913 Prakasam Giddalur SCGirlsHostel_ARG 5.5 0SNI 0SNI 0SNI 0SNI 22/06/2024 16:00
11726 Y.S.R Muddanur Mangapatnam 5.5 26.39 94.93 1.89 0SNI 22/06/2024 23:00
10048 Annamayya Kalikiri Kalikiri 5.0 0 NA 0 NA 0.0 0 NA 22/06/2024 23:00
12628 Ananthapuramu Tadipatri Bhogasamudram_ARG 5.0 0SNI 0SNI 0SNI 0SNI 22/06/2024 17:00
10565 Sri Potti Sriramulu Nellore Kavali Kavali 5.0 30.2 80.4 0.0 998.6 22/06/2024 23:00
14122 Guntur Tadikonda Ravela 5.0 28.89 77.59 0.0 0 NA 22/06/2024 23:00
11943 East Godavari Biccavolu Biccavolu 5.0 28.9 96.12 0.0 0SNI 22/06/2024 23:00
14345 Sri Sathya Sai Ramagiri Nasanakota 5.0 26.6 77.9 2.5 0 NA 22/06/2024 23:00
14090 Palnadu Amaravathi Nemalikallu 5.0 28.6 87.59 0.0 0 NA 22/06/2024 23:00
13205 NTR Jaggaiahpeta Govt.GirlsHighSchool_Mittagudem_ARG 4.75 0SNI 0SNI 0SNI 0SNI 22/06/2024 23:00
11003 Tirupati Yerpedu Pallam 4.75 0 NA 0 NA 7.91 0 NA 22/06/2024 23:00
14286 Sri Sathya Sai Bukkapatnam Marala 4.5 26.2 81.9 0.6 0 NA 22/06/2024 23:00
14422 Kurnool Peddakadubur Chinnatumbalam 4.5 27.89 67.3 0.0 0 NA 22/06/2024 23:00
10540 Tirupati Renigunta Karakambadi 4.25 30.01 75.48 1.03 989.4 22/06/2024 23:00
11429 Sri Sathya Sai Penukonda Penukonda 4.25 25.96 79.75 7.48 0SNI 22/06/2024 23:00
10785 Alluri Sitharama Raju Chinturu Sarvela 4.0 27.87 100.0 0.0 961.9 22/06/2024 23:00
14317 Sri Sathya Sai Kothacheruvu Kodapaganipalle 4.0 25.6 66.19 4.9 0 NA 22/06/2024 23:00
12773 Prakasam Bestawaripeta Akkapalli_ARG 4.0 0SNI 0SNI 0SNI 0SNI 22/06/2024 21:00
12648 Annamayya Lakkireddipalli Kurnoothala_ARG 4.0 0SNI 0SNI 0SNI 0SNI 22/06/2024 17:00
12448 Vizianagaram Bondapalli Bondapalle_ARG 4.0 0SNI 0SNI 0SNI 0SNI 22/06/2024 22:00
12169 Ananthapuramu Atmakur Atmakur_ARG 3.75 0SNI 0SNI 0SNI 0SNI 22/06/2024 23:00
13305 Sri Potti Sriramulu Nellore Atmakur Govt.Hospital_ARG 3.75 0SNI 0SNI 0SNI 0SNI 22/06/2024 17:00
13135 Kurnool Adoni M.U.PrimarySchool_ARG 3.5 0SNI 0SNI 0SNI 0SNI 22/06/2024 23:00
11724 Y.S.R Khajipeta Dumpalagattu 3.5 27.39 87.72 4.39 0SNI 22/06/2024 23:00
14246 Y.S.R Jammalamadugu Danavulapadu 3.5 25.89 88.0 7.3 0 NA 22/06/2024 23:00
11072 NTR Vatsavai Lingala 3.25 27.82 100.0 5.33 1003.1 22/06/2024 23:00
12682 Palnadu Sattenapalli Rentapalla_ARG 3.0 0SNI 0SNI 0SNI 0SNI 22/06/2024 23:00
12794 Sri Potti Sriramulu Nellore Lingasamudram V.R.Kota_ARG 3.0 0SNI 0SNI 0SNI 0SNI 22/06/2024 16:00
13042 Kakinada Pithapuram AKPM_HighSchool_ARG 3.0 0SNI 0SNI 0SNI 0SNI 22/06/2024 23:00
13338 Y.S.R Jammalamadugu Govt.DegreeCollege_ARG 2.75 0SNI 0SNI 0SNI 0SNI 22/06/2024 23:00
12728 Nandyal Sanjamala Hothramandinne_ARG 2.5 0SNI 0SNI 0SNI 0SNI 22/06/2024 16:00
13236 Krishna Gudivada MunicipalPark_Pedayerukapadu_ARG 2.5 0SNI 0SNI 0SNI 0SNI 22/06/2024 23:00
14258 Y.S.R Proddutur Chowdur 2.5 25.6 86.19 0.0 0 NA 22/06/2024 23:00
11193 Prakasam Ongole Devarampadu 2.5 29.5 87.7 0 NA 1001.5 22/06/2024 23:00
14335 Sri Sathya Sai O.D Cheruvu Tangedukunta 2.5 24.89 76.5 0.0 0 NA 22/06/2024 23:00
13209 NTR Jaggaiahpeta Warehousing_Godowns_ARG 2.5 0SNI 0SNI 0SNI 0SNI 22/06/2024 23:00
11935 Sri Sathya Sai Roddam Pedamanturu 2.25 26.56 75.3 0.0 0SNI 22/06/2024 23:00
12293 Kakinada Thondangi Thondangi_ARG 2.25 0SNI 0SNI 0SNI 0SNI 22/06/2024 23:00
12173 Ananthapuramu Vidapanakal Vidapanakal_ARG 2.25 0SNI 0SNI 0SNI 0SNI 22/06/2024 23:00
11117 Alluri Sitharama Raju Chinturu Yerrampeta 2.0 28.35 85.29 0.0 995.0 22/06/2024 23:00
10334 Vizianagaram Nellimarla Nellimarla 2.0 26.65 90.72 0.0 996.8 22/06/2024 23:00
10338 Vizianagaram Dattirajeru Komatipalli 2.0 25.97 93.44 0.0 991.2 22/06/2024 23:00
10126 Y.S.R Jammalamadugu Jammalamadugu 2.0 26.87 91.75 0.0 981.9 22/06/2024 23:00
13288 Sri Potti Sriramulu Nellore Kavali Near_9thwardCRC Building_ARG 2.0 0SNI 0SNI 0SNI 0SNI 22/06/2024 18:00
13128 Kurnool Adoni ElementarySchool_Amaravathi Nagar_ARG 2.0 0SNI 0SNI 0SNI 0SNI 22/06/2024 21:00
11939 Tirupati Nagalapuram Suratpalle 1.75 28.77 84.93 10.5 0SNI 22/06/2024 23:00
10109 Visakhapatnam Maharanipeta Commonpoint 1.75 29.8 89.2 0.4 1002.0 22/06/2024 23:00
10364 Visakhapatnam Padmanabham Padmanabham 1.75 27.28 95.07 0.0 997.1 22/06/2024 23:00
14095 Palnadu Dachepalli Madinapadu 1.5 28.2 91.0 0.0 0 NA 22/06/2024 23:00
14274 Sri Sathya Sai Amadagur Chinaganipalle 1.5 30.5 66.19 1.0 0 NA 22/06/2024 16:00
11528 Annamayya Kurabalakota Mudivedu 1.5 26.36 66.41 4.3 0SNI 22/06/2024 23:00
11127 Vizianagaram Jami Jami 1.5 26.8 83.54 0.0 997.5 22/06/2024 23:00
12324 Visakhapatnam Visakhapatnam Rural Swahanthra Nagar_Park_ARG 1.5 0SNI 0SNI 0SNI 0SNI 22/06/2024 23:00
12460 Parvathipuram Manyam Balijipeta Balajipeta_ARG 1.5 0SNI 0SNI 0SNI 0SNI 22/06/2024 23:00
12863 Guntur Mangalagiri R&B_Bungalow_ARG 1.25 0SNI 0SNI 0SNI 0SNI 22/06/2024 23:00
12206 Visakhapatnam Gajuwaka Hillock_ARG 1.25 0SNI 0SNI 0SNI 0SNI 22/06/2024 22:00
10315 Anakapalli Chodavaram Chodavaram 1.25 27.61 87.36 0.0 994.8 22/06/2024 23:00
11682 Vizianagaram Srungavarapukota Dharmavaram 1.25 25.91 64.14 0.0 0SNI 22/06/2024 23:00
10312 Alluri Sitharama Raju Ananthagiri Ananthagiri 1.25 22.6 96.38 0.0 0 NA 22/06/2024 23:00
10181 Sri Sathya Sai Kadiri Kuttagulla 1.0 27.13 75.5 0.0 948.1 22/06/2024 23:00
11756 Eluru Dwaraka Tirumala I.S.Raghavapuram 1.0 28.01 100.0 0.0 0SNI 22/06/2024 23:00
14278 Ananthapuramu Atmakur Siddaram Puram 1.0 26.89 75.4 1.89 0 NA 22/06/2024 23:00
10447 Y.S.R Khajipeta Khajipet 1.0 27.0 84.13 6.28 987.5 22/06/2024 23:00
14340 Ananthapuramu Peddavaduguru Virupapuram 1.0 27.79 76.4 0.5 0 NA 22/06/2024 23:00
14348 Sri Sathya Sai Rolla Ratnagiri 1.0 24.79 82.69 0.2 0 NA 22/06/2024 23:00
12383 NTR Vijayawada East Municipal_School_ARG 1.0 0SNI 0SNI 0SNI 0SNI 22/06/2024 23:00
10517 Tirupati Narayanavanam Aranyakandriga 1.0 34.08 100.0 1.72 0 NA 22/06/2024 15:00
11039 Eluru Agiripalli Agiripalle 1.0 27.46 94.0 0.0 0 NA 22/06/2024 23:00
11930 NTR Gaddamanugu Konduru Velagaleru 1.0 29.26 81.4 0.0 0SNI 22/06/2024 23:00
14024 Parvathipuram Manyam Salur Poyimala 1.0 31.0 80.09 0.1 0 NA 22/06/2024 16:00
14075 Eluru Mudinepalle Pedda Palaparru 1.0 27.89 82.59 0.0 0 NA 22/06/2024 23:00
14302 Sri Sathya Sai Gorantla Gownivaripalle 1.0 25.0 81.4 2.0 0 NA 22/06/2024 23:00
10493 Nandyal Rudravaram Rudravaram 1.0 29.17 73.29 0.0 0 NA 22/06/2024 23:00
12392 Alluri Sitharama Raju Yetapaka Yetapaka_ARG 1.0 0SNI 0SNI 0SNI 0SNI 22/06/2024 23:00
12297 Kakinada Kirlampudi Kirlampudi_ARG 1.0 0SNI 0SNI 0SNI 0SNI 22/06/2024 23:00
14250 Y.S.R Muddanur Bondalakunta 1.0 28.29 82.09 2.79 0 NA 22/06/2024 23:00
11632 Tirupati Gudur Mittathmakuru 1.0 36.73 53.68 0 NA 0SNI 22/06/2024 17:00
10582 Sri Potti Sriramulu Nellore Venkatachalam Kasumur 1.0 30.45 76.12 0.0 0 NA 22/06/2024 23:00
11263 Nandyal Chagalamarri Pedda Bodhanam 0.75 28.01 84.11 0.0 0SNI 22/06/2024 23:00
11665 Anakapalli Madugula Gaadhirai 0.75 28.05 94.12 0.0 0SNI 22/06/2024 23:00
10267 NTR Vijayawada North Gunadala 0.75 27.78 97.12 0.0 989.7 22/06/2024 23:00
14281 Ananthapuramu Beluguppa Ankampalle 0.5 27.2 67.19 0.0 0 NA 22/06/2024 23:00
12587 Sri Sathya Sai Kadiri Yerradoddi_ARG 0.5 0SNI 0SNI 0SNI 0SNI 22/06/2024 23:00
12614 Sri Sathya Sai Penukonda Vasudevapuram_ARG 0.5 0SNI 0SNI 0SNI 0SNI 22/06/2024 23:00
11445 Sri Sathya Sai Tanakal Chikatimanipalli 0.5 0 NA 0 NA 1.54 0SNI 22/06/2024 23:00
13131 Kurnool Adoni Govt.GirlsHostel_ARG 0.5 0SNI 0SNI 0SNI 0SNI 22/06/2024 23:00
14073 Eluru Agiripalli Edulagudem 0.5 36.59 72.8 0.6 0 NA 22/06/2024 17:00
14311 Ananthapuramu Kambadur Ramapuram 0.5 27.5 70.4 2.59 0 NA 22/06/2024 23:00
12468 Parvathipuram Manyam Jiyyammavalasa Jiyyamma Valasa_ARG 0.5 0SNI 0SNI 0SNI 0SNI 22/06/2024 23:00
12132 Y.S.R Kadapa Collectorate_ARG 0.5 0SNI 0SNI 0SNI 0SNI 22/06/2024 23:00
12428 NTR Vijayawada Central A.K.T.P.M.C_HighSchool_ARG 0.5 0SNI 0SNI 0SNI 0SNI 22/06/2024 23:00
11048 Eluru Chatrai Chatrai 0.5 0 NA 0 NA 8.78 0 NA 22/06/2024 18:00
12672 Palnadu Nekarikallu Chagallu_ARG 0.5 0SNI 0SNI 0SNI 0SNI 22/06/2024 23:00
11032 East Godavari Seethanagaram Purushottapatnam 0.5 28.91 100.0 0.25 0 NA 22/06/2024 23:00
13052 Kakinada Pithapuram Chinnamamba_Park_ARG 0.5 0SNI 0SNI 0SNI 0SNI 22/06/2024 23:00
12348 Visakhapatnam Gopalapatnam Madhavara_vuda layout_500kl_ARG 0.5 0SNI 0SNI 0SNI 0SNI 22/06/2024 22:00
13093 Vizianagaram Nellimarla Panchayatioffice_Jarajapu Peta_ARG 0.5 0SNI 0SNI 0SNI 0SNI 22/06/2024 23:00
13094 Vizianagaram Nellimarla Putikapet_ARG 0.5 0SNI 0SNI 0SNI 0SNI 22/06/2024 23:00
12444 Vizianagaram Vepada Vepada_ARG 0.5 0SNI 0SNI 0SNI 0SNI 22/06/2024 23:00
12523 Anakapalli Anakapalli Anakapalli_ARG 0.5 0SNI 0SNI 0SNI 0SNI 22/06/2024 23:00
14236 Y.S.R Atlur Kamalakuru 0.5 28.89 75.4 0.0 0 NA 22/06/2024 23:00
10825 Sri Sathya Sai Mudigubba Mudigubba 0.5 25.19 84.73 4.39 958.4 22/06/2024 23:00
14326 Sri Sathya Sai Mudigubba Ralantapur 0.5 26.7 81.09 1.89 0 NA 22/06/2024 23:00
14342 Ananthapuramu Putlur Kadavakal 0.5 30.6 65.9 0.0 0 NA 22/06/2024 22:00
14354 Ananthapuramu Tadipatri Hussain Puram 0.5 30.29 66.8 0.3 0 NA 22/06/2024 23:00
14358 Ananthapuramu Uravakonda Y.Rampuram 0.5 26.79 71.0 2.7 0 NA 22/06/2024 23:00
14363 Ananthapuramu Vajrakarur Venkatampalle 0.5 27.7 64.59 0.0 0 NA 22/06/2024 23:00
14034 Alluri Sitharama Raju Chinthapalli Bheemasingi 0.5 24.29 81.9 0.0 0 NA 22/06/2024 23:00
14049 Alluri Sitharama Raju Peda Bayalu Gamparai 0.5 22.89 86.0 0.0 0 NA 22/06/2024 23:00
14055 Alluri Sitharama Raju Kunavaram Kothuru 0.5 28.79 76.3 0.0 0 NA 22/06/2024 23:00
14056 Alluri Sitharama Raju Yetapaka Rayanapeta 0.5 28.5 89.3 0.0 0 NA 22/06/2024 23:00
14059 Alluri Sitharama Raju Y. Ramavaram Chowdaridiba 0.5 26.29 84.09 25.0 0 NA 22/06/2024 23:00
14066 Eluru Jangareddigudem Taduvai 0.5 28.2 89.3 0.0 0 NA 22/06/2024 23:00
14068 East Godavari Nidadavole Basivi Reddy Peta 0.5 29.29 81.4 0.0 0 NA 22/06/2024 23:00
14069 Eluru Nidamarru Bynepallelle 0.5 28.79 86.59 1.0 0 NA 22/06/2024 23:00
10520 Chittoor Palasamudram Palasamudram 0.5 26.81 86.97 0.0 0 NA 22/06/2024 23:00
12385 NTR Vijayawada East Electricity Colony MPP School_ARG 0.5 0SNI 0SNI 0SNI 0SNI 22/06/2024 23:00
14102 Guntur Kollipara Athota 0.5 28.2 86.0 0.0 0 NA 22/06/2024 23:00
10102 Chittoor Srirangarajapuram Kothapalli 0.5 26.45 92.1 0.0 970.2 22/06/2024 23:00
12631 Ananthapuramu Tadipatri Veerapuram_ARG 0.5 0SNI 0SNI 0SNI 0SNI 22/06/2024 16:00
10508 Chittoor Gangadharanellore Ellamarajupalli 0.5 26.6 100.0 0.0 970.3 22/06/2024 23:00
14402 Kurnool Kowthalam Kamavaram 0.5 27.5 76.69 3.4 0 NA 22/06/2024 23:00
14430 Kurnool Yemmiganur Tsallakudlur 0.5 28.79 70.9 4.09 0 NA 22/06/2024 23:00
12414 Chittoor Chittoor Govt_Hospital_ARG 0.25 0SNI 0SNI 0SNI 0SNI 22/06/2024 23:00
10088 Chittoor Santhipuram Santhi Puram 0.25 24.46 88.19 0.0 922.8 22/06/2024 23:00
11455 Ananthapuramu Uravakonda Amidala 0.25 27.13 59.98 2.06 0SNI 22/06/2024 23:00
11417 Ananthapuramu Kambadur Nuthimadugu 0.25 27.19 73.16 1.29 0SNI 22/06/2024 23:00
10862 Sri Sathya Sai Ramagiri Ramagiri 0.25 27.11 66.78 0.0 0 NA 22/06/2024 23:00
13175 Nandyal Allagadda MPDOffice_ARG 0.25 0SNI 0SNI 0SNI 0SNI 22/06/2024 23:00
11453 Sri Sathya Sai Tanakal Peddapalli 0.25 26.66 64.2 7.4 0SNI 22/06/2024 23:00
12129 Nandyal Nandyal Nandyal_ARG 0.25 0SNI 0SNI 0SNI 0SNI 22/06/2024 23:00
11266 Nandyal Gospadu Deebaguntla 0.25 28.08 81.62 0.0 0SNI 22/06/2024 23:00
10046 Nandyal Banaganapalli Banaganapalle 0.25 30.4 72.17 0.0 0 NA 22/06/2024 22:00
10967 Kurnool Tuggali Jonnagiri 0.25 28.14 72.78 0.0 956.1 22/06/2024 22:00
11252 Kurnool Adoni Ganekal 0.25 0 NA 0 NA 12.22 0SNI 22/06/2024 23:00
11343 Kurnool Holagunda Neraniki 0.25 27.16 63.81 15.34 0SNI 22/06/2024 23:00
10079 Kurnool Yemmiganur Yemmiganur 0.25 28.39 63.22 0.0 961.3 22/06/2024 23:00
13120 Kurnool Yemmiganur ZPHSchool_SoganurRoad_ARG 0.25 0SNI 0SNI 0SNI 0SNI 22/06/2024 18:00
11342 Nandyal Chagalamarri Muthyalapadu 0.25 27.17 100.0 6.37 0SNI 22/06/2024 23:00
12994 Ananthapuramu Rayadurg Urdu_Elementary_School_ARG 0.25 0SNI 0SNI 0SNI 0SNI 22/06/2024 23:00
10279 Krishna Pamarru Pamarru 0.25 27.87 90.19 0.0 1000.3 22/06/2024 23:00
11026 Kakinada Pedapudi G.Mamida 0.25 0 NA 0 NA 6.02 0 NA 22/06/2024 23:00
10395 Dr. B.R.Ambedkar Konaseema Kothapeta Kothapeta 0.25 29.19 94.0 0.0 1000.1 22/06/2024 23:00
11692 Dr. B.R.Ambedkar Konaseema K.Ganagavaram Sivala 0.25 28.77 94.52 0.0 0SNI 22/06/2024 23:00
10201 Eluru Chintalapudi Chintalapudi 0.25 27.48 89.65 1.2 983.0 22/06/2024 20:00
12005 Eluru Polavaram Pattiseema 0.25 0 NA 100.0 9.98 0SNI 22/06/2024 23:00
11228 NTR Chandarlapadu Chintalapadu 0.25 26.88 93.89 0.0 0SNI 22/06/2024 23:00
10289 NTR Ibrahimpatnam Kondapalli 0.25 28.9 73.09 0.0 994.1 22/06/2024 23:00
10768 West Godavari Poduru Poduru 0.25 29.34 95.77 0.0 0 NA 22/06/2024 23:00
13284 West Godavari Palacole HeadWaterWorks_ARG 0.25 0SNI 0SNI 0SNI 0SNI 22/06/2024 23:00
13208 NTR Jaggaiahpeta NSPPulichintalaProject_Kodad Road_ARG 0.25 0SNI 0SNI 0SNI 0SNI 22/06/2024 23:00
11778 Prakasam Bestawaripeta Moksha Gundam 0.25 29.65 71.4 0 NA 0SNI 22/06/2024 23:00
11693 Kakinada Prathipadu Uttarakanchi 0.25 27.17 98.85 0.0 0SNI 22/06/2024 23:00
11027 East Godavari Rajamahendravaram Rural Dowleswaram 0.25 28.75 100.0 0.0 996.5 22/06/2024 23:00
11702 East Godavari Rajanagaram Kalavacherla 0.25 28.94 85.37 4.13 0SNI 22/06/2024 23:00
11028 East Godavari Rangampeta Rangampeta 0.25 31.78 79.85 0.0 991.5 22/06/2024 18:00
11903 Kakinada Pithapuram Kandarada 0.25 28.59 91.49 4.64 0SNI 22/06/2024 23:00
12305 Kakinada Pithapuram Pithapuram_ARG 0.25 0SNI 0SNI 0SNI 0SNI 22/06/2024 23:00
11116 Alluri Sitharama Raju Yetapaka Buttaigudem 0.25 28.01 88.84 0.0 994.6 22/06/2024 23:00
10799 Alluri Sitharama Raju Kunavaram Kondaigudem 0.25 28.92 91.57 0.0 997.0 22/06/2024 23:00
12388 Alluri Sitharama Raju Kunavaram Kunavaram_ARG 0.25 0SNI 0SNI 0SNI 0SNI 22/06/2024 23:00
11960 Alluri Sitharama Raju Chinturu Chanti Bridge 0.25 29.2 83.81 0.0 0SNI 22/06/2024 23:00
12387 Alluri Sitharama Raju Chinturu Chintur_ARG 0.25 0SNI 0SNI 0SNI 0SNI 22/06/2024 23:00
12480 Srikakulam Palasa Palasa_ARG 0.25 0SNI 0SNI 0SNI 0SNI 22/06/2024 23:00
12201 Visakhapatnam Maharanipeta Gavarapalem-E Seva Center_ARG 0.25 0SNI 0SNI 0SNI 0SNI 22/06/2024 23:00
13079 Vizianagaram Vizianagaram MuncipalOffice_ARG 0.25 0SNI 0SNI 0SNI 0SNI 22/06/2024 23:00
10392 Anakapalli Devarapalli Devarapalle 0.25 28.9 87.86 2.75 0 NA 22/06/2024 23:00
10318 Anakapalli K.Kotapadu K Kotapadu 0.25 27.3 87.21 0.0 992.8 22/06/2024 23:00
10371 Srikakulam Ganguvarisigadam G.Sigadam 0.25 27.4 100.0 0.0 992.8 22/06/2024 23:00
12485 Srikakulam Narasannapeta Narasannapeta_ARG 0.25 0SNI 0SNI 0SNI 0SNI 22/06/2024 23:00
12492 Srikakulam Laveru laveru_ARG 0.25 0SNI 0SNI 0SNI 0SNI 22/06/2024 23:00
10333 Srikakulam Etcherla Etcherla 0.25 28.3 98.6 0.6 0 NA 22/06/2024 23:00
13109 Vizianagaram Bobbili MDOffice_ARG 0.25 0SNI 0SNI 0SNI 0SNI 22/06/2024 17:00
10343 Vizianagaram Ramabhadrapuram Ramabhadrapuram 0.25 26.09 93.45 0.0 994.3 22/06/2024 23:00
11680 Vizianagaram Badangi Pinapenki 0.25 27.86 100.0 0.0 0SNI 22/06/2024 23:00
12451 Vizianagaram Dattirajeru Dattirajeru_ARG 0.25 0SNI 0SNI 0SNI 0SNI 22/06/2024 23:00
12178 Vizianagaram Kothavalasa Utharaplli_GLSR_area_ARG 0.25 0SNI 0SNI 0SNI 0SNI 22/06/2024 22:00
12227 Visakhapatnam Gajuwaka KBR_ARG 0.25 0SNI 0SNI 0SNI 0SNI 22/06/2024 22:00
13260 Anakapalli Yelamanchili Ramarayudipalem_ARG 0.25 0SNI 0SNI 0SNI 0SNI 22/06/2024 23:00
11758 East Godavari Gopalapuram Karicharlagudem 0.25 0 NA 0 NA 0 NA 0SNI 22/06/2024 23:00
12382 East Godavari Gopalapuram Gopalapuram_ARG 0.25 0SNI 0SNI 0SNI 0SNI 22/06/2024 23:00
10120 Visakhapatnam Pendurthi Akkireddipalem 0.25 28.32 89.14 0.77 0 NA 22/06/2024 23:00
10056 Annamayya Gurramkonda Gurramkonda 0.25 25.73 75.26 0.0 930.5 22/06/2024 20:00
11719 Y.S.R Kamalapuram Chinnachepalle 0.25 26.42 100.0 0.0 0SNI 22/06/2024 23:00
13331 Y.S.R S.Mydukur MPPSchool_Yellampalli_ARG 0.25 0SNI 0SNI 0SNI 0SNI 22/06/2024 23:00
12151 Y.S.R Jammalamadugu Jammalamadugu_ARG 0.25 0SNI 0SNI 0SNI 0SNI 22/06/2024 23:00
12426 NTR Vijayawada North M.K.Baig School_ARG 0.25 0SNI 0SNI 0SNI 0SNI 22/06/2024 23:00
12375 Visakhapatnam Anandapuram Gosthani_Pump House_ARG 0.0 0SNI 0SNI 0SNI 0SNI 22/06/2024 22:00
12195 Visakhapatnam Bheemunipatnam Kapuluppada_ARG 0.0 0SNI 0SNI 0SNI 0SNI 22/06/2024 23:00
11671 Visakhapatnam Bheemunipatnam Kapuluppada 0.0 28.2 95.9 0 NA 0 NA 22/06/2024 23:00
10313 Visakhapatnam Bheemunipatnam Bheemunipatnam 0.0 0 NA 0 NA 0.0 0 NA 22/06/2024 23:00
11999 Visakhapatnam Visakhapatnam Rural Paradesipalem 0.0 27.98 93.33 0.6 0SNI 22/06/2024 23:00
12190 Visakhapatnam Visakhapatnam Rural Kambala_Konda_ARG 0.0 0SNI 0SNI 0SNI 0SNI 22/06/2024 20:00
12285 Visakhapatnam Gopalapatnam Appana_Palem_ARG 0.0 0SNI 0SNI 0SNI 0SNI 22/06/2024 23:00
12295 Visakhapatnam Gopalapatnam TTD Kalyanamandapam_ARG 0.0 0SNI 0SNI 0SNI 0SNI 22/06/2024 23:00
12321 Visakhapatnam Visakhapatnam Rural Vambay Colony_ARG 0.0 0SNI 0SNI 0SNI 0SNI 22/06/2024 23:00
10115 Visakhapatnam Visakhapatnam Rural Arelova 0.0 29.7 84.3 0.7 0 NA 22/06/2024 23:00
10117 Visakhapatnam Gopalapatnam Simhachalam 0.0 29.1 93.6 0.0 0 NA 22/06/2024 23:00
12338 Visakhapatnam Visakhapatnam Rural Marine_Police Station_ARG 0.0 0SNI 0SNI 0SNI 0SNI 22/06/2024 23:00
10113 Anakapalli Nakkapalli Vempadu 0.0 29.0 78.7 0 NA 1000.8 22/06/2024 23:00
12525 Anakapalli Nakkapalli Nakkapalli_ARG 0.0 0SNI 0SNI 0SNI 0SNI 22/06/2024 23:00
11904 Anakapalli S.Rayavaram S Rayavaram 0.0 0 NA 0 NA 0.0 0 NA 22/06/2024 23:00
11669 Anakapalli S.Rayavaram Darlapudi 0.0 27.9 95.2 0.0 996.0 22/06/2024 23:00
10087 Anakapalli S.Rayavaram Koruprolu 0.0 28.5 95.1 0.0 0 NA 22/06/2024 23:00
10367 Anakapalli Rambilli Rambilli 0.0 28.8 93.9 0.5 0 NA 22/06/2024 23:00
11008 Alluri Sitharama Raju Addateegala Addateegala 0.0 26.88 93.17 2.49 981.1 22/06/2024 23:00
10382 Alluri Sitharama Raju Rajavommangi Rajavommangi 0.0 26.51 92.18 0.0 978.8 22/06/2024 23:00
11021 Kakinada Kotananduru Kotananduru 0.0 29.1 74.63 1.2 996.9 22/06/2024 23:00
12530 Kakinada Kotananduru Kotanaduru_ARG 0.0 0SNI 0SNI 0SNI 0SNI 22/06/2024 23:00
11700 Kakinada Tuni D.Polavaram 0.0 27.74 91.58 0.0 0SNI 22/06/2024 23:00
11035 Kakinada Tuni Chamavaram 0.0 32.36 72.01 9.03 995.7 22/06/2024 18:00
10378 Kakinada Rowthulapudi Routhulapudi 0.0 28.41 95.36 0.0 993.2 22/06/2024 23:00
12532 Kakinada Rowthulapudi Routhulapudi_ARG 0.0 0SNI 0SNI 0SNI 0SNI 22/06/2024 23:00
10379 Kakinada Sankhavaram Sankhavaram 0.0 28.72 90.11 3.61 995.9 22/06/2024 23:00
13075 Kakinada Yeleswaram Saibabametta_WaterTank_ARG 0.0 0SNI 0SNI 0SNI 0SNI 22/06/2024 11:00
13077 Kakinada Yeleswaram MPDOffice_ARG 0.0 0SNI 0SNI 0SNI 0SNI 22/06/2024 23:00
10383 Kakinada Yeleswaram Yeleswaram 0.0 28.01 83.44 0.0 0 NA 22/06/2024 23:00
13192 Kakinada Yeleswaram MPPSchool_Lingavanipalem_ARG 0.0 0SNI 0SNI 0SNI 0SNI 22/06/2024 23:00
12349 East Godavari Seethanagaram Seethanagaram_ARG 0.0 0SNI 0SNI 0SNI 0SNI 22/06/2024 23:00
10386 East Godavari Gokavaram Gokavaram 0.0 28.54 72.8 0.0 995.9 22/06/2024 22:00
11020 Kakinada Kirlampudi Krishnavaram 0.0 0 NA 0 NA 0.25 0 NA 22/06/2024 23:00
10172 Kakinada Prathipadu Prathipadu 0.0 28.57 94.06 5.42 997.0 22/06/2024 23:00
11034 Kakinada Thondangi Krishnapuram 0.0 28.3 99.9 0.0 0 NA 22/06/2024 23:00
11704 Kakinada Peddapuram Peddapuram 0.0 32.3 69.91 2.06 0SNI 22/06/2024 18:00
10260 Kakinada Peddapuram Peddapuram 0.0 28.67 96.02 5.25 996.4 22/06/2024 23:00
13071 Kakinada Peddapuram Sathabdi_MuncipalPark_ARG 0.0 0SNI 0SNI 0SNI 0SNI 22/06/2024 23:00
13081 Kakinada Peddapuram NehruMuncipalHighSchool_ARG 0.0 0SNI 0SNI 0SNI 0SNI 22/06/2024 17:00
13083 Kakinada Peddapuram VivekanandaMPSchool_ARG 0.0 0SNI 0SNI 0SNI 0SNI 22/06/2024 23:00
13085 Kakinada Peddapuram RajivGandhiM.U.PSchool_Nagampet_ARG 0.0 0SNI 0SNI 0SNI 0SNI 22/06/2024 20:00
13110 Kakinada Peddapuram V.V.RamanaMurthyLayout_ARG 0.0 0SNI 0SNI 0SNI 0SNI 22/06/2024 23:00
13113 Kakinada Peddapuram HFA-AHPApartments_ARG 0.0 0SNI 0SNI 0SNI 0SNI 22/06/2024 15:00
13067 Kakinada Peddapuram Old_R.D.Office_ARG 0.0 0SNI 0SNI 0SNI 0SNI 22/06/2024 23:00
11014 Kakinada Gandepalli Gandepalle 0.0 0 NA 0 NA 3.27 0 NA 22/06/2024 23:00
11691 East Godavari Korukonda Gadala 0.0 32.06 65.22 1.11 0SNI 22/06/2024 11:00
10387 East Godavari Korukonda Jambupatnam 0.0 29.49 100.0 6.8 997.7 22/06/2024 23:00
10180 East Godavari Rajamahendravaram Urban Mallayyapeta 0.0 29.99 68.67 2.75 1000.3 22/06/2024 23:00
12402 East Godavari Rajamahendravaram Urban MRO_Office_ARG 0.0 0SNI 0SNI 0SNI 0SNI 22/06/2024 23:00
12500 East Godavari Rajamahendravaram Urban Kantipudi Shopping Complex_ARG 0.0 0SNI 0SNI 0SNI 0SNI 22/06/2024 23:00
11694 East Godavari Rajanagaram Nandarada 0.0 0 NA 0 NA 0.0 0SNI 22/06/2024 23:00
12502 East Godavari Rajanagaram MRO Office_ARG 0.0 0SNI 0SNI 0SNI 0SNI 22/06/2024 12:00
12308 Kakinada Samalkota Samalkota_ARG 0.0 0SNI 0SNI 0SNI 0SNI 22/06/2024 23:00
10373 Kakinada Pithapuram Pithapuram 0.0 28.48 87.98 3.52 0 NA 22/06/2024 23:00
13037 Kakinada Pithapuram Municipal_Office_ARG 0.0 0SNI 0SNI 0SNI 0SNI 22/06/2024 23:00
13047 Kakinada Pithapuram Muncipal_Guest_House_ARG 0.0 0SNI 0SNI 0SNI 0SNI 22/06/2024 23:00
11946 Kakinada U.Kothapalli Nagalapalli 0.0 28.7 94.6 0 NA 0 NA 22/06/2024 23:00
11022 Kakinada U.Kothapalli Vakatippa 0.0 0 NA 0 NA 2.0 0 NA 22/06/2024 23:00
10258 Kakinada Kakinada (Rural) Achampeta Road 0.0 0 NA 0 NA 1.0 0 NA 22/06/2024 23:00
12508 Kakinada Kakinada (Rural) MROffice_ARG 0.0 0SNI 0SNI 0SNI 0SNI 22/06/2024 23:00
12390 Alluri Sitharama Raju Vararamachandrapuram Rekapalle_ARG 0.0 0SNI 0SNI 0SNI 0SNI 22/06/2024 23:00
10129 Srikakulam Pathapatnam Pathapatnam 0.0 27.63 89.46 0.0 933.7 22/06/2024 23:00
10134 Srikakulam Palasa Palasa 0.0 28.23 100.0 0.0 0 NA 22/06/2024 23:00
13172 Srikakulam Palasa Aganwadischool_ARG 0.0 0SNI 0SNI 0SNI 0SNI 22/06/2024 23:00
13180 Srikakulam Palasa MPUPSchool_Talabhadra_ARG 0.0 0SNI 0SNI 0SNI 0SNI 22/06/2024 23:00
13193 Srikakulam Palasa HousingOffice_ARG 0.0 0SNI 0SNI 0SNI 0SNI 22/06/2024 23:00
11713 Srikakulam Mandasa Mandasa 0.0 28.2 90.5 0 NA 0 NA 22/06/2024 23:00
10352 Srikakulam Mandasa Haripuram 0.0 28.5 86.6 0.0 0 NA 22/06/2024 20:00
11990 Srikakulam Ichchapuram Arakabadra 0.0 28.3 90.5 1.1 0 NA 22/06/2024 23:00
10136 Srikakulam Ichchapuram Ichchapuram 0.0 31.3 84.1 0 NA 0 NA 22/06/2024 14:00
13183 Srikakulam Ichchapuram GovtDegreCollege_ARG 0.0 0SNI 0SNI 0SNI 0SNI 22/06/2024 23:00
13187 Srikakulam Ichchapuram Burial Ground_BahudaRiver_ARG 0.0 0SNI 0SNI 0SNI 0SNI 22/06/2024 23:00
13188 Srikakulam Ichchapuram MPUPSchool_Panja Street_ARG 0.0 0SNI 0SNI 0SNI 0SNI 22/06/2024 23:00
10845 Sri Sathya Sai Kanaganipalli Kanaganapalle 0.0 28.23 67.8 0.0 954.7 22/06/2024 23:00
12593 Sri Sathya Sai Kanaganipalli Muthavakuntla_ARG 0.0 0SNI 0SNI 0SNI 0SNI 22/06/2024 17:00
10177 Sri Sathya Sai Dharmavaram Dharmavaram 0.0 28.68 63.36 0.0 0 NA 22/06/2024 23:00
13020 Sri Sathya Sai Dharmavaram Municipal Primary School_Chinnuru_ARG 0.0 0SNI 0SNI 0SNI 0SNI 22/06/2024 22:00
12570 Sri Sathya Sai Dharmavaram Darsimala_ARG 0.0 0SNI 0SNI 0SNI 0SNI 22/06/2024 18:00
10831 Sri Sathya Sai Bathalapalli Bathalapalle 0.0 29.55 59.4 0.17 963.1 22/06/2024 23:00
12170 Visakhapatnam Mulagada SrihariPuram_GOVT Hosipital_ARG 0.0 0SNI 0SNI 0SNI 0SNI 22/06/2024 23:00
12218 Visakhapatnam Seethammadhara Indoor Stadium_ARG 0.0 0SNI 0SNI 0SNI 0SNI 22/06/2024 22:00
12219 Visakhapatnam Seethammadhara HLR_Pump House_ARG 0.0 0SNI 0SNI 0SNI 0SNI 22/06/2024 22:00
12283 Visakhapatnam Maharanipeta New Railaway Colony_ARG 0.0 0SNI 0SNI 0SNI 0SNI 22/06/2024 23:00
12314 Visakhapatnam Maharanipeta Chavulamadhum BurialGround_ARG 0.0 0SNI 0SNI 0SNI 0SNI 22/06/2024 22:00
12365 Visakhapatnam Seethammadhara MRO Office_ARG 0.0 0SNI 0SNI 0SNI 0SNI 22/06/2024 23:00
12366 Visakhapatnam Seethammadhara HBColony GVMC School_ARG 0.0 0SNI 0SNI 0SNI 0SNI 22/06/2024 23:00
12223 Visakhapatnam Pedagantyada Pedagantyada_ARG 0.0 0SNI 0SNI 0SNI 0SNI 22/06/2024 23:00
12224 Visakhapatnam Pedagantyada HB Colony_WaterTank_ARG 0.0 0SNI 0SNI 0SNI 0SNI 22/06/2024 23:00
12242 Visakhapatnam Pedagantyada Madheenabagh_ARG 0.0 0SNI 0SNI 0SNI 0SNI 22/06/2024 23:00
12247 Visakhapatnam Pedagantyada SriRamnagar_ARG 0.0 0SNI 0SNI 0SNI 0SNI 22/06/2024 23:00
12250 Visakhapatnam Pedagantyada Elementry_School_Palavalasa_ARG 0.0 0SNI 0SNI 0SNI 0SNI 22/06/2024 23:00
12251 Visakhapatnam Pedagantyada Elementry_School_Devada_ARG 0.0 0SNI 0SNI 0SNI 0SNI 22/06/2024 23:00
10098 Visakhapatnam Pedagantyada Gangavaram 0.0 29.4 94.7 0.0 0 NA 22/06/2024 23:00
12204 Visakhapatnam Gajuwaka Akkireddypalem_ARG 0.0 0SNI 0SNI 0SNI 0SNI 22/06/2024 23:00
11686 Vizianagaram Vizianagaram Vizianagaram(A) 0.0 27.79 100.0 0.0 0SNI 22/06/2024 23:00
10123 Vizianagaram Vizianagaram Vizianagaram 0.0 28.19 86.9 2.84 991.3 22/06/2024 19:00
13082 Vizianagaram Vizianagaram VT AgraharamELSR_ARG 0.0 0SNI 0SNI 0SNI 0SNI 22/06/2024 23:00
13088 Vizianagaram Nellimarla KJBVSchoolMIMS_ARG 0.0 0SNI 0SNI 0SNI 0SNI 22/06/2024 23:00
11678 Vizianagaram Denkada Modhavalasa 0.0 0 NA 0 NA 0.0 0 NA 22/06/2024 23:00
10327 Vizianagaram Denkada Denkada 0.0 27.74 98.89 0.0 997.4 22/06/2024 23:00
11677 Vizianagaram Bhogapuram Kongavanipalem 0.0 30.4 86.2 0 NA 0 NA 22/06/2024 15:00
11126 Vizianagaram Bhogapuram Bhogapuram 0.0 0 NA 0 NA 1.3 0 NA 22/06/2024 15:00
10351 Alluri Sitharama Raju Munchingi Puttu Munchingiputtu 0.0 22.3 100.0 0.0 0 NA 22/06/2024 23:00
10356 Alluri Sitharama Raju Dumbriguda Dumbriguda 0.0 24.46 86.23 0.0 0 NA 22/06/2024 18:00
12023 Alluri Sitharama Raju Araku Valley Araku_Rg 0.0 0SNI 0SNI 0SNI 0SNI 22/06/2024 23:00
10156 Alluri Sitharama Raju Araku Valley Araku 0.0 22.52 100.0 0.0 0 NA 22/06/2024 23:00
10340 Alluri Sitharama Raju Hukumpeta Hukumpeta 0.0 0 NA 0 NA 1.03 0 NA 22/06/2024 23:00
10342 Alluri Sitharama Raju Paderu Paderu 0.0 22.71 97.0 0.0 0 NA 22/06/2024 23:00
10346 Alluri Sitharama Raju G.Madugula GMadugula 0.0 21.42 100.0 2.84 0 NA 22/06/2024 23:00
11672 Alluri Sitharama Raju Chinthapalli Chintapalle(A) 0.0 22.78 100.0 1.11 0SNI 22/06/2024 23:00
12816 Alluri Sitharama Raju Chinthapalli Pedabarada_ARG 0.0 0SNI 0SNI 0SNI 0SNI 22/06/2024 23:00
10323 Alluri Sitharama Raju Gudem Kothaveedhi GKVeedi 0.0 22.23 90.31 0.0 912.4 22/06/2024 22:00
10372 Alluri Sitharama Raju Koyyuru Kakarapadu 0.0 25.62 100.0 0.0 972.9 22/06/2024 22:00
12514 Alluri Sitharama Raju Koyyuru Koyyuru_ARG 0.0 0SNI 0SNI 0SNI 0SNI 22/06/2024 23:00
10319 Anakapalli Golugonda Golugonda 0.0 26.13 100.0 0.0 985.9 22/06/2024 23:00
10316 Anakapalli Narsipatnam Peda Boddepalle 0.0 28.28 89.29 0.0 991.8 22/06/2024 23:00
13283 Anakapalli Narsipatnam OldPanchayatOffice_ARG 0.0 0SNI 0SNI 0SNI 0SNI 22/06/2024 23:00
13287 Anakapalli Narsipatnam MPP School_ Joginadhunipalem_ARG 0.0 0SNI 0SNI 0SNI 0SNI 22/06/2024 23:00
13294 Anakapalli Narsipatnam MPDOOffice_ARG 0.0 0SNI 0SNI 0SNI 0SNI 22/06/2024 20:00
13300 Anakapalli Narsipatnam WasteManagementPark_Balighattam_ARG 0.0 0SNI 0SNI 0SNI 0SNI 22/06/2024 23:00
10326 Anakapalli Rolugunta Rolugunta 0.0 28.44 74.68 0.0 989.6 22/06/2024 23:00
11668 Anakapalli Ravikamatham Kothakota 0.0 27.45 96.87 0.0 0SNI 22/06/2024 23:00
10329 Anakapalli Ravikamatham Ravikavatam 0.0 28.98 87.65 0.0 992.1 22/06/2024 23:00
12823 Anakapalli Ravikamatham Tattaband_ARG 0.0 0SNI 0SNI 0SNI 0SNI 22/06/2024 22:00
10317 Anakapalli Cheedikada Cheedikada 0.0 0 NA 0 NA 0.0 0 NA 22/06/2024 23:00
12306 Anakapalli K.Kotapadu K_Kotapadu_ARG 0.0 0SNI 0SNI 0SNI 0SNI 22/06/2024 19:00
11138 Anakapalli Sabbavaram Sabbavaram 0.0 28.09 82.31 0.0 995.2 22/06/2024 23:00
12160 Visakhapatnam Pendurthi Zone-VI_Office_ARG 0.0 0SNI 0SNI 0SNI 0SNI 22/06/2024 22:00
12182 Visakhapatnam Pendurthi Pendurthy Zonal Office_ARG 0.0 0SNI 0SNI 0SNI 0SNI 22/06/2024 23:00
12183 Visakhapatnam Pendurthi Pendurthi_SC,BC Colony_ARG 0.0 0SNI 0SNI 0SNI 0SNI 22/06/2024 23:00
12211 Visakhapatnam Pendurthi Sathivanipalem_ARG 0.0 0SNI 0SNI 0SNI 0SNI 22/06/2024 23:00
12212 Visakhapatnam Pendurthi Narava Water Tank_ARG 0.0 0SNI 0SNI 0SNI 0SNI 22/06/2024 21:00
12213 Visakhapatnam Pendurthi Kothapalem_Arg 0.0 0SNI 0SNI 0SNI 0SNI 22/06/2024 17:00
12216 Visakhapatnam Pendurthi PWD_Pump_House_ARG 0.0 0SNI 0SNI 0SNI 0SNI 22/06/2024 22:00
12298 Visakhapatnam Pendurthi Nalla_Quarry_150_KL_Elsr_ARG 0.0 0SNI 0SNI 0SNI 0SNI 22/06/2024 22:00
12300 Visakhapatnam Pendurthi Ganesh Nagar_ARG 0.0 0SNI 0SNI 0SNI 0SNI 22/06/2024 23:00
10359 Srikakulam Kaviti Rajapuram 0.0 28.0 93.4 0.0 0 NA 22/06/2024 23:00
11995 Srikakulam Sompeta Bathupuram(Lower) 0.0 0 NA 0 NA 0 NA 0 NA 22/06/2024 23:00
10355 Srikakulam Sompeta Korlam 0.0 0 NA 0 NA 0 NA 0 NA 22/06/2024 14:00
12489 Srikakulam Laxminarasupeta Laxminarasampet_ARG 0.0 0SNI 0SNI 0SNI 0SNI 22/06/2024 23:00
10344 Srikakulam Saravakota Saravakota 0.0 28.17 93.92 0.0 0 NA 22/06/2024 23:00
11186 Srikakulam Santhabommali Santhabommali 0.0 28.5 95.1 0.0 998.2 22/06/2024 23:00
12482 Srikakulam Santhabommali Santhabommali_ARG 0.0 0SNI 0SNI 0SNI 0SNI 22/06/2024 23:00
10348 Srikakulam Kotabommali Kotabommali 0.0 29.12 84.03 0.86 994.6 22/06/2024 23:00
11179 Srikakulam Burja Kolluvalsa 0.0 28.82 100.0 0.17 995.5 22/06/2024 23:00
10369 Vizianagaram Santhakaviti Santhakaviti 0.0 0 NA 0 NA 0.0 0 NA 22/06/2024 23:00
11151 Vizianagaram Rajam Rajam 0.0 27.35 88.41 0.0 0 NA 22/06/2024 23:00
13157 Vizianagaram Rajam MainPumpHouseOHSR_ARG 0.0 0SNI 0SNI 0SNI 0SNI 22/06/2024 23:00
13167 Srikakulam Amadalavalasa MuncipalHighSchool_Chintada_ARG 0.0 0SNI 0SNI 0SNI 0SNI 22/06/2024 23:00
11988 Srikakulam Gara Gara 0.0 0 NA 0 NA 0.0 0 NA 22/06/2024 23:00
12029 Srikakulam Gara Kalingapatnam_Rg 0.0 0SNI 0SNI 0SNI 0SNI 22/06/2024 23:00
10335 Srikakulam Gara Tulugu 0.0 29.6 91.1 0.3 0 NA 22/06/2024 23:00
11715 Srikakulam Srikakulam Ragolu 0.0 29.3 89.6 0.0 0 NA 22/06/2024 23:00
11996 Srikakulam Srikakulam Balaga 0.0 29.2 94.5 0.0 0 NA 22/06/2024 23:00
11187 Srikakulam Srikakulam Srikakulam 0.0 29.0 81.9 0.3 997.2 22/06/2024 19:00
13129 Srikakulam Srikakulam Govt.Womens_college_ARG 0.0 0SNI 0SNI 0SNI 0SNI 22/06/2024 23:00
13134 Srikakulam Srikakulam R&Bguesthouse_ARG 0.0 0SNI 0SNI 0SNI 0SNI 22/06/2024 23:00
13136 Srikakulam Srikakulam Govtartcollege_ARG 0.0 0SNI 0SNI 0SNI 0SNI 22/06/2024 23:00
10332 Srikakulam Laveru Budamuru 0.0 28.21 97.01 0.77 997.9 22/06/2024 23:00
11706 Srikakulam Ranastalam Pydibhimavaram 0.0 28.8 99.3 0.0 0 NA 22/06/2024 23:00
10331 Srikakulam Ranastalam Garikipalem 0.0 28.2 100.0 0.0 0 NA 22/06/2024 23:00
11997 Srikakulam Etcherla Tamminaidupeta 0.0 27.9 100.0 0.1 0 NA 22/06/2024 23:00
13227 Eluru Nuzividu MunicipalOffice_ARG 0.0 0SNI 0SNI 0SNI 0SNI 22/06/2024 23:00
13231 Eluru Nuzividu RDOffice_ARG 0.0 0SNI 0SNI 0SNI 0SNI 22/06/2024 23:00
12493 Prakasam Ongole Gudumellapadu(School)_ARG 0.0 0SNI 0SNI 0SNI 0SNI 22/06/2024 17:00
12543 East Godavari Tallapudi Paidimetta_ARG 0.0 0SNI 0SNI 0SNI 0SNI 22/06/2024 23:00
11681 Vizianagaram Poosapatirega Govindapuram 0.0 28.0 94.4 0.0 1000.1 22/06/2024 23:00
10328 Vizianagaram Poosapatirega Patha Kopperla 0.0 27.51 100.0 0.0 998.4 22/06/2024 23:00
13103 Vizianagaram Bobbili UrbanHealthCenter_Gollapalli_ARG 0.0 0SNI 0SNI 0SNI 0SNI 22/06/2024 23:00
11710 Parvathipuram Manyam Palakonda Navagam 0.0 28.06 82.55 0.0 0SNI 22/06/2024 23:00
13147 Parvathipuram Manyam Palakonda MDOffice_ARG 0.0 0SNI 0SNI 0SNI 0SNI 22/06/2024 23:00
13152 Parvathipuram Manyam Palakonda NagaraPanchayatoffice_ARG 0.0 0SNI 0SNI 0SNI 0SNI 22/06/2024 23:00
10325 Vizianagaram Gajapathinagaram Gajapathinagaram 0.0 0 NA 0 NA 0 NA 0 NA 22/06/2024 23:00
10141 Vizianagaram Garividi Garividi 0.0 30.07 80.77 0.08 998.3 22/06/2024 18:00
11130 Vizianagaram Cheepurupalli Cheepurupalle 0.0 27.72 95.86 2.15 979.3 22/06/2024 23:00
10336 Vizianagaram Gurla Gurla 0.0 27.59 100.0 0.0 995.2 22/06/2024 23:00
10146 Vizianagaram Srungavarapukota Tenuboddavara 0.0 25.38 98.58 0.08 989.6 22/06/2024 23:00
12439 Vizianagaram Srungavarapukota Srungavarapukota_ARG 0.0 0SNI 0SNI 0SNI 0SNI 22/06/2024 23:00
12179 Vizianagaram Lakkavarapukota Mallivedu_Pump House_ARG 0.0 0SNI 0SNI 0SNI 0SNI 22/06/2024 22:00
10320 Vizianagaram Lakkavarapukota L.Kota 0.0 0 NA 0 NA 0.0 0 NA 22/06/2024 23:00
12209 Visakhapatnam Gajuwaka Duvvada_Sector-1_ARG 0.0 0SNI 0SNI 0SNI 0SNI 22/06/2024 22:00
12221 Visakhapatnam Gajuwaka Gopalareddy Nagar_ARG 0.0 0SNI 0SNI 0SNI 0SNI 22/06/2024 23:00
12226 Visakhapatnam Gajuwaka Srinagar_ARG 0.0 0SNI 0SNI 0SNI 0SNI 22/06/2024 23:00
12229 Visakhapatnam Gajuwaka Aganampudi Govt Hospital_ARG 0.0 0SNI 0SNI 0SNI 0SNI 22/06/2024 23:00
10101 Visakhapatnam Gajuwaka Gajuwaka 0.0 29.82 100.0 4.56 994.1 22/06/2024 23:00
12228 Anakapalli Paravada Aganampudi_BC Colony_ARG 0.0 0SNI 0SNI 0SNI 0SNI 22/06/2024 19:00
12231 Anakapalli Paravada Lemarthy_ARG 0.0 0SNI 0SNI 0SNI 0SNI 22/06/2024 23:00
12233 Anakapalli Paravada Yeduruvanipalem_ARG 0.0 0SNI 0SNI 0SNI 0SNI 22/06/2024 23:00
12234 Anakapalli Paravada Lankelapalem_ARG 0.0 0SNI 0SNI 0SNI 0SNI 22/06/2024 22:00
12281 Anakapalli Paravada Thadi_10KL_Reservoir_ARG 0.0 0SNI 0SNI 0SNI 0SNI 22/06/2024 23:00
10095 Anakapalli Paravada Paravada 0.0 28.6 98.6 0.8 0 NA 22/06/2024 23:00
12520 Anakapalli Paravada Parvada_ARG 0.0 0SNI 0SNI 0SNI 0SNI 22/06/2024 23:00
12259 Anakapalli Anakapalli Vijayaramarajupeta_ARG 0.0 0SNI 0SNI 0SNI 0SNI 22/06/2024 11:00
12260 Anakapalli Anakapalli Anakapalle_Jead_Water_Work_ARG 0.0 0SNI 0SNI 0SNI 0SNI 22/06/2024 23:00
12261 Anakapalli Anakapalli Gandhinagar_ARG 0.0 0SNI 0SNI 0SNI 0SNI 22/06/2024 23:00
12262 Anakapalli Anakapalli Woodpeta_ARG 0.0 0SNI 0SNI 0SNI 0SNI 22/06/2024 23:00
12265 Anakapalli Anakapalli Gavarapalem_ARG 0.0 0SNI 0SNI 0SNI 0SNI 22/06/2024 23:00
12266 Anakapalli Anakapalli Kodur_ARG 0.0 0SNI 0SNI 0SNI 0SNI 22/06/2024 23:00
12275 Anakapalli Anakapalli Valluru_ARG 0.0 0SNI 0SNI 0SNI 0SNI 22/06/2024 23:00
12278 Anakapalli Anakapalli Yerukuvanpalem_ARG 0.0 0SNI 0SNI 0SNI 0SNI 22/06/2024 23:00
10311 Anakapalli Anakapalli Anakapalle 0.0 28.76 88.23 2.32 998.5 22/06/2024 23:00
11660 Anakapalli Butchayyapeta Rajam 0.0 27.94 80.78 1.03 0SNI 22/06/2024 22:00
12518 Anakapalli Butchayyapeta Butchayyapeta_ARG 0.0 0SNI 0SNI 0SNI 0SNI 22/06/2024 23:00
10314 Anakapalli Kotauratla Kailashpatnam 0.0 28.4 100.0 0.0 996.3 22/06/2024 23:00
12819 Anakapalli Makavarapalem Venkannapalem_ARG 0.0 0SNI 0SNI 0SNI 0SNI 22/06/2024 23:00
10370 Anakapalli Munagapaka Munagapaka 0.0 27.32 97.26 0.0 998.5 22/06/2024 23:00
10090 Anakapalli Atchuthapuram Atchutapuram 0.0 29.5 91.9 0.9 0 NA 22/06/2024 23:00
12522 Anakapalli Atchuthapuram Atchutapuram_ARG 0.0 0SNI 0SNI 0SNI 0SNI 22/06/2024 23:00
11673 Anakapalli Yelamanchili Kokkira Palli 0.0 28.49 80.25 0.0 0SNI 22/06/2024 23:00
13261 Anakapalli Yelamanchili MPPE School_Kokkirapalli_ARG 0.0 0SNI 0SNI 0SNI 0SNI 22/06/2024 23:00
13264 Anakapalli Yelamanchili Near Durga Devi Temple_Penjeruvu_ARG 0.0 0SNI 0SNI 0SNI 0SNI 22/06/2024 23:00
11757 East Godavari Gopalapuram Chityala 0.0 29.03 90.46 0.0 0SNI 22/06/2024 23:00
10394 Eluru Koyyalagudem Gavaravaram 0.0 28.08 86.5 0.0 0 NA 22/06/2024 23:00
10206 Eluru Kamavarapukota Kamavarapukota 0.0 28.53 90.62 0.0 983.7 22/06/2024 23:00
10225 East Godavari Nallajerla Nallajerla 0.0 28.21 86.73 0.0 0 NA 22/06/2024 23:00
10758 East Godavari Kovvur Kovvur 0.0 28.98 86.68 0.0 1001.1 22/06/2024 23:00
13197 East Godavari Kovvur MunicipalOffice_ARG 0.0 0SNI 0SNI 0SNI 0SNI 22/06/2024 10:00
13200 East Godavari Kovvur Reservoir Site_AchyammaColony_ARG 0.0 0SNI 0SNI 0SNI 0SNI 22/06/2024 23:00
13201 East Godavari Kovvur RTO office_ARG 0.0 0SNI 0SNI 0SNI 0SNI 22/06/2024 23:00
11763 East Godavari Nidadavole Korumamidi 0.0 28.82 98.24 0.0 0SNI 22/06/2024 20:00
13196 East Godavari Nidadavole Gandhinagarpark_ARG 0.0 0SNI 0SNI 0SNI 0SNI 22/06/2024 18:00
13202 East Godavari Nidadavole Pangidi Road_SS_ARG 0.0 0SNI 0SNI 0SNI 0SNI 22/06/2024 23:00
13204 East Godavari Nidadavole Muncipaloffice_ARG 0.0 0SNI 0SNI 0SNI 0SNI 22/06/2024 23:00
12352 Visakhapatnam Pendurthi Megadri Gedda Reservoir_ARG 0.0 0SNI 0SNI 0SNI 0SNI 22/06/2024 15:00
12355 Visakhapatnam Pendurthi Pendurthi_Police Station_ARG 0.0 0SNI 0SNI 0SNI 0SNI 22/06/2024 22:00
12358 Visakhapatnam Pendurthi Sram_sakthi_Nagar_ARG 0.0 0SNI 0SNI 0SNI 0SNI 22/06/2024 23:00
12361 Visakhapatnam Pendurthi Venkatadri Nagar Park_ARG 0.0 0SNI 0SNI 0SNI 0SNI 22/06/2024 23:00
12196 Visakhapatnam Anandapuram Gambheeram_ARG 0.0 0SNI 0SNI 0SNI 0SNI 22/06/2024 23:00
10121 Visakhapatnam Anandapuram Gambheeram 0.0 32.84 84.73 3.44 992.1 22/06/2024 16:00
14229 Sri Potti Sriramulu Nellore Vidavalur Utukuru 0.0 30.89 77.09 1.7 0 NA 22/06/2024 23:00
14230 Sri Potti Sriramulu Nellore Vinjamur Utukuru 0.0 32.79 58.09 0.0 0 NA 22/06/2024 23:00
14231 Annamayya Gurramkonda Cherlopalle 0.0 29.1 66.09 2.2 0 NA 22/06/2024 23:00
14232 Chittoor Karvetinagar Domodara Maharajapuram 0.0 32.9 67.3 0.89 0 NA 22/06/2024 16:00
14233 Tirupati Nagalapuram Tripuranthaka Puramkota 0.0 29.2 73.19 4.09 0 NA 22/06/2024 23:00
14234 Chittoor Sodam Nadigadda 0.0 27.29 70.59 0.0 0 NA 22/06/2024 23:00
14235 Tirupati Srikalahasti Rachagunneri 0.0 31.2 70.69 1.29 0 NA 22/06/2024 23:00
14237 Y.S.R Atlur Muthukur 0.0 30.2 63.7 0.0 0 NA 22/06/2024 23:00
14238 Y.S.R B.Kodur Kamakunta 0.0 30.89 68.3 0.0 0 NA 22/06/2024 23:00
14241 Y.S.R Chakrayapet Mahadevapalle 0.0 30.1 66.9 0.2 0 NA 22/06/2024 23:00
14242 Annamayya Chitvel Bhakrapuram 0.0 36.79 57.79 0.5 0 NA 22/06/2024 16:00
14243 Y.S.R Duvvur Kanagudur 0.0 29.6 72.5 0.0 0 NA 22/06/2024 23:00
14244 Annamayya Galiveedu Veligallu 0.0 28.7 71.4 1.39 0 NA 22/06/2024 23:00
12567 Sri Sathya Sai Chilamathur Palagalapalli_ARG 0.0 0SNI 0SNI 0SNI 0SNI 22/06/2024 23:00
11550 Annamayya Mulakalacheruvu Cowdasamuram 0.0 27.73 58.09 1.63 0SNI 22/06/2024 23:00
11541 Annamayya Thamballapalle Kannemadugu 0.0 0 NA 0 NA 0.17 0SNI 22/06/2024 22:00
10537 Annamayya Thamballapalle Gopidinne 0.0 27.57 64.81 5.07 948.0 22/06/2024 23:00
12433 Annamayya Thamballapalle Thamballapalle_ARG 0.0 0SNI 0SNI 0SNI 0SNI 22/06/2024 21:00
10522 Annamayya Peddamandyam Peddamandyam 0.0 26.58 78.0 0.0 950.7 22/06/2024 23:00
10515 Annamayya Kambhamvaripalle Kambhamvaripalle 0.0 26.91 76.36 0.0 957.2 22/06/2024 23:00
10112 Tirupati Tirupati (Rural) Tirupathirural 0.0 30.71 63.9 0.0 0 NA 22/06/2024 23:00
10092 Tirupati Renigunta Renigunta 0.0 30.43 71.53 5.33 989.7 22/06/2024 23:00
11540 Tirupati Srikalahasti Vampalle 0.0 30.54 61.1 0.17 0SNI 22/06/2024 23:00
13076 Tirupati Srikalahasti NTR_Park_Panagal Road_ARG 0.0 0SNI 0SNI 0SNI 0SNI 22/06/2024 23:00
13078 Tirupati Srikalahasti Old_MROOffice_ARG 0.0 0SNI 0SNI 0SNI 0SNI 22/06/2024 23:00
11914 Tirupati Thottambedu Pedda Kannali 0.0 31.03 67.76 3.87 0SNI 22/06/2024 23:00
11543 Tirupati Thottambedu Chiyyavaram 0.0 0 NA 0 NA 0.0 0SNI 22/06/2024 23:00
10539 Tirupati Thottambedu Bonupalle 0.0 0 NA 0 NA 9.46 0 NA 22/06/2024 23:00
12440 Tirupati Tirupati (Urban) M.R.Palli_ARG 0.0 0SNI 0SNI 0SNI 0SNI 22/06/2024 19:00
12443 Tirupati Tirupati (Urban) Bhupal_Housing_Layout_ARG 0.0 0SNI 0SNI 0SNI 0SNI 22/06/2024 23:00
10038 Tirupati Chandragiri Chandragiri 0.0 29.57 76.13 0.0 978.2 22/06/2024 23:00
13359 Y.S.R Pulivendula Y S R Statue_Kadapa ring road_ARG 0.0 0SNI 0SNI 0SNI 0SNI 22/06/2024 23:00
11738 Y.S.R Thondur Gotur 0.0 29.42 69.41 15.42 0SNI 22/06/2024 23:00
10427 Y.S.R Thondur Maddur 0.0 29.82 54.41 16.51 0 NA 22/06/2024 23:00
10424 Y.S.R Veerapunayunipalle Palagiri 0.0 29.42 69.24 6.45 982.2 22/06/2024 23:00
10064 Y.S.R Yerraguntla Yerraguntla 0.0 29.46 66.0 3.87 0 NA 22/06/2024 23:00
13340 Y.S.R Yerraguntla MROOffice_ARG 0.0 0SNI 0SNI 0SNI 0SNI 22/06/2024 23:00
13341 Y.S.R Yerraguntla MarketYard_ARG 0.0 0SNI 0SNI 0SNI 0SNI 22/06/2024 23:00
10465 Y.S.R Vallur Vallur 0.0 27.56 77.78 0.43 987.4 22/06/2024 23:00
12640 Y.S.R Atlur Madapur_ARG 0.0 0SNI 0SNI 0SNI 0SNI 22/06/2024 16:00
11741 Y.S.R Vontimitta Mantapampalle 0.0 30.12 67.8 0.0 0SNI 22/06/2024 23:00
10039 Y.S.R Vontimitta Vontimitta 0.0 28.9 73.2 0.0 0 NA 22/06/2024 23:00
11716 Y.S.R Sidhout Peddapalle 0.0 30.44 64.52 0.0 0SNI 22/06/2024 22:00
12133 Y.S.R Kadapa Govt Arts_College 0.0 0SNI 0SNI 0SNI 0SNI 22/06/2024 19:00
12137 Y.S.R Kadapa Transco_Sankarapuram_ARG 0.0 0SNI 0SNI 0SNI 0SNI 22/06/2024 23:00
12142 Y.S.R Kadapa New Collectorate_ARG 0.0 0SNI 0SNI 0SNI 0SNI 22/06/2024 09:00
12144 Y.S.R Kadapa YSR_Circle_ARG 0.0 0SNI 0SNI 0SNI 0SNI 22/06/2024 16:00
10438 Y.S.R Brahmamgarimattam B.mattam 0.0 29.8 70.64 8.35 980.1 22/06/2024 21:00
12642 Y.S.R Brahmamgarimattam Palugurallapalle_ARG 0.0 0SNI 0SNI 0SNI 0SNI 22/06/2024 16:00
10446 Y.S.R Kalasapadu Kalasapadu 0.0 29.29 76.71 0.0 981.3 22/06/2024 23:00
12654 Y.S.R Porumamilla Harijanawada_ARG 0.0 0SNI 0SNI 0SNI 0SNI 22/06/2024 23:00
11746 Y.S.R B.Kodur Payalakuntla 0.0 30.22 66.93 8.35 0SNI 22/06/2024 23:00
11951 Y.S.R Badvel Kongalaveedu 0.0 30.65 61.06 0.0 0SNI 22/06/2024 23:00
10119 Y.S.R Badvel Badvel 0.0 30.03 63.11 0.0 988.2 22/06/2024 23:00
13314 Y.S.R Badvel ZPBoysHighSchool_ARG 0.0 0SNI 0SNI 0SNI 0SNI 22/06/2024 14:00
13315 Y.S.R Badvel Near_CSIChurch_ARG 0.0 0SNI 0SNI 0SNI 0SNI 22/06/2024 23:00
13317 Y.S.R Badvel RTOOffice_ARG 0.0 0SNI 0SNI 0SNI 0SNI 22/06/2024 23:00
13318 Y.S.R Badvel TGPColony_ARG 0.0 0SNI 0SNI 0SNI 0SNI 22/06/2024 23:00
12646 Y.S.R Gopavaram Kalavapalli_ARG 0.0 0SNI 0SNI 0SNI 0SNI 22/06/2024 11:00
11954 Y.S.R Khajipeta Yettur 0.0 0 NA 0 NA 19.86 0SNI 22/06/2024 23:00
11743 Y.S.R Chapad Vedurur 0.0 28.06 77.87 4.13 0SNI 22/06/2024 23:00
10124 Y.S.R Proddutur Rameswaram 0.0 31.68 64.1 0.0 981.6 22/06/2024 20:00
10619 Sri Potti Sriramulu Nellore Ulavapadu Ulavapadu 0.0 0 NA 0 NA 0.4 0 NA 22/06/2024 23:00
10069 Sri Potti Sriramulu Nellore Udayagiri Udayagiri 0.0 30.37 64.15 10.33 980.5 22/06/2024 23:00
12765 Sri Potti Sriramulu Nellore Udayagiri Thirumalapuram_ARG 0.0 0SNI 0SNI 0SNI 0SNI 22/06/2024 16:00
11604 Sri Potti Sriramulu Nellore Varikuntapadu Peddareddipalle 0.0 31.16 60.79 8.95 0SNI 22/06/2024 23:00
12766 Sri Potti Sriramulu Nellore Varikuntapadu Isakapalle_ARG 0.0 0SNI 0SNI 0SNI 0SNI 22/06/2024 20:00
12746 Sri Potti Sriramulu Nellore Kondapuram Isakadamerla_ARG 0.0 0SNI 0SNI 0SNI 0SNI 22/06/2024 23:00
11662 Sri Potti Sriramulu Nellore Kavali kavali(A) 0.0 31.3 77.2 0 NA 0 NA 22/06/2024 23:00
10552 Sri Potti Sriramulu Nellore Bogole Bogole 0.0 0 NA 0 NA 0.4 0 NA 22/06/2024 23:00
12744 Sri Potti Sriramulu Nellore Kaligiri Chinna Annaluru_ARG 0.0 0SNI 0SNI 0SNI 0SNI 22/06/2024 23:00
11442 Sri Sathya Sai Talupula Batrepalli 0.0 26.61 77.61 1.37 0SNI 22/06/2024 23:00
14312 Ananthapuramu Kanekal Bennikal 0.0 27.0 73.9 0.0 0 NA 22/06/2024 23:00
14313 Ananthapuramu Kanekal Garudachedu 0.0 26.79 71.5 0.0 0 NA 22/06/2024 23:00
14314 Ananthapuramu Kanekal Kalekurthy 0.0 27.2 67.19 0.0 0 NA 22/06/2024 23:00
14315 Ananthapuramu Kanekal Kanekal 0.0 27.39 66.8 0.0 0 NA 22/06/2024 23:00
14316 Ananthapuramu Kanekal Sollapuram 0.0 27.79 67.4 0.0 0 NA 22/06/2024 23:00
14318 Ananthapuramu Kudair Cholasamudram 0.0 31.0 66.4 1.39 0 NA 22/06/2024 16:00
14319 Ananthapuramu Kundurpi Bestharapalle 0.0 31.89 62.2 2.2 0 NA 22/06/2024 17:00
14322 Sri Sathya Sai Madakasira C.Kodigepalle 0.0 26.6 72.5 2.29 0 NA 22/06/2024 23:00
14323 Sri Sathya Sai Madakasira Manur 0.0 26.0 74.8 0.0 0 NA 22/06/2024 23:00
14324 Sri Sathya Sai Madakasira Melavoi 0.0 26.1 74.8 1.39 0 NA 22/06/2024 23:00
14325 Sri Sathya Sai Mudigubba Budanampalle 0.0 28.0 60.7 2.2 0 NA 22/06/2024 23:00
14327 Sri Sathya Sai Mudigubba Mangalamadaka 0.0 28.0 75.9 2.2 0 NA 22/06/2024 22:00
14328 Sri Sathya Sai Mudigubba Marthadu 0.0 29.2 69.0 1.7 0 NA 22/06/2024 23:00
14332 Sri Sathya Sai Nambulapulakunta Gowkanapalle 0.0 33.2 57.9 1.5 0 NA 22/06/2024 15:00
14334 Ananthapuramu Narpala Chamaluru 0.0 30.0 62.29 1.0 0 NA 22/06/2024 23:00
14336 Sri Sathya Sai Parigi Narasapuram 0.0 0 NA 0 NA 0.0 0 NA 22/06/2024 23:00
14337 Sri Sathya Sai Parigi Seegipalle 0.0 26.2 76.69 0.0 0 NA 22/06/2024 23:00
14338 Ananthapuramu Peddapappur Chinnayakkaluru 0.0 34.29 56.09 0.89 0 NA 22/06/2024 16:00
14339 Ananthapuramu Peddavaduguru Appecherla 0.0 28.29 73.4 0.0 0 NA 22/06/2024 23:00
14341 Sri Sathya Sai Penukonda Erramanchi 0.0 27.29 74.5 1.39 0 NA 22/06/2024 23:00
14343 Sri Sathya Sai Puttaparthy Amagondapalem 0.0 31.0 68.8 2.2 0 NA 22/06/2024 16:00
14344 Sri Sathya Sai Ramagiri Ganthimarri 0.0 28.29 76.19 1.5 0 NA 22/06/2024 23:00
14346 Sri Sathya Sai Roddam Bucharla 0.0 26.0 82.0 0.69 0 NA 22/06/2024 23:00
14347 Sri Sathya Sai Roddam Naranagepalle 0.0 28.0 69.0 0.1 0 NA 22/06/2024 23:00
14349 Ananthapuramu Settur Bachepalli 0.0 25.89 73.59 0.0 0 NA 22/06/2024 23:00
14350 Ananthapuramu Singanamala Akuledu 0.0 29.29 58.29 0 NA 0 NA 22/06/2024 23:00
14351 Ananthapuramu Singanamala Rachepalle 0.0 35.59 57.59 1.6 0 NA 22/06/2024 16:00
14352 Ananthapuramu Singanamala Salakamcheruvu 0.0 30.39 61.29 2.7 0 NA 22/06/2024 23:00
14353 Ananthapuramu Tadipatri Chukkalur 0.0 35.2 55.09 2.09 0 NA 22/06/2024 17:00
14355 Ananthapuramu Tadipatri Talaricheruvu 0.0 29.5 67.4 0.0 0 NA 22/06/2024 23:00
14356 Sri Sathya Sai Tanakal Kokkanti 0.0 27.6 72.4 1.29 0 NA 22/06/2024 23:00
14357 Ananthapuramu Uravakonda Vyasapuram 0.0 27.39 68.5 1.7 0 NA 22/06/2024 23:00
14359 Ananthapuramu Vajrakarur Chabala 0.0 32.9 58.5 2.5 0 NA 22/06/2024 17:00
14360 Ananthapuramu Vajrakarur Kamalapadu 0.0 25.7 73.5 0.0 0 NA 22/06/2024 23:00
14362 Ananthapuramu Vajrakarur Pedda Chinna Pyapili 0.0 33.7 60.59 0.0 0 NA 22/06/2024 16:00
14364 Ananthapuramu Vidapanakal Hanchanahal 0.0 33.5 46.29 1.79 0 NA 22/06/2024 17:00
14365 Ananthapuramu Vidapanakal Havaligi 0.0 28.0 64.5 1.29 0 NA 22/06/2024 23:00
14366 Ananthapuramu Vidapanakal Undabanda 0.0 27.0 65.9 2.09 0 NA 22/06/2024 23:00
14367 Ananthapuramu Yadiki Kamalapadu 0.0 35.09 48.2 0.4 0 NA 22/06/2024 17:00
14008 Vizianagaram Badangi Paltheru 0.0 27.2 86.0 0.0 0 NA 22/06/2024 23:00
14009 Vizianagaram Bobbili Kalavarai Agraharam 0.0 29.2 79.59 0.0 0 NA 22/06/2024 23:00
14010 Vizianagaram Cheepurupalli Pedanadipalle 0.0 27.39 89.9 1.0 0 NA 22/06/2024 23:00
14012 Vizianagaram Gajapathinagaram Mutcherla 0.0 33.09 80.4 1.29 0 NA 22/06/2024 14:00
14015 Vizianagaram Kothavalasa Tummikapalli 0.0 27.7 87.4 0.0 0 NA 22/06/2024 23:00
14018 Vizianagaram Mentada Puligummi 0.0 26.0 93.5 0.3 0 NA 22/06/2024 23:00
14019 Vizianagaram Merakamudidam Kondalaveru 0.0 27.7 90.5 0.0 0 NA 22/06/2024 22:00
14020 Vizianagaram Nellimarla Sathivada 0.0 27.89 87.3 0.0 0 NA 22/06/2024 23:00
14025 Vizianagaram Therlam Kagam 0.0 28.0 88.69 0.0 0 NA 22/06/2024 23:00
14026 Vizianagaram Therlam Viziarampuram @Buripeta 0.0 28.29 83.4 0.0 0 NA 22/06/2024 23:00
14028 Anakapalli Anakapalli Koduru 0.0 35.0 77.8 1.7 0 NA 22/06/2024 15:00
14031 Alluri Sitharama Raju Araku Valley Dalapatiguda 0.0 23.29 88.59 0.0 0 NA 22/06/2024 23:00
14032 Visakhapatnam Bheemunipatnam Narayanarajupeta 0.0 28.39 89.69 0.0 0 NA 22/06/2024 23:00
14033 Anakapalli Butchayyapeta Pedapudi Agraharam 0.0 28.2 88.0 0.0 0 NA 22/06/2024 23:00
14036 Alluri Sitharama Raju Chinthapalli Rachapanukulu 0.0 28.79 72.5 0.2 0 NA 22/06/2024 17:00
14038 Alluri Sitharama Raju G.Madugula Kunthalam 0.0 0 NA 0 NA 0.0 0 NA 22/06/2024 23:00
14039 Alluri Sitharama Raju G.Madugula Subbulu 0.0 24.89 87.3 0.0 0 NA 22/06/2024 23:00
14040 Anakapalli Golugonda Krishnadevipeta 0.0 27.39 82.09 0.0 0 NA 22/06/2024 23:00
14043 Anakapalli Kotauratla Pamulavaka 0.0 25.7 83.69 0.0 0 NA 22/06/2024 16:00
14044 Alluri Sitharama Raju Koyyuru Sarabhanna Palem 0.0 26.7 89.19 0.0 0 NA 22/06/2024 23:00
14045 Anakapalli Munagapaka Chuchukonda 0.0 30.5 81.09 0.0 0 NA 22/06/2024 23:00
14048 Anakapalli Payakaraopeta Kandipudi S.Narsapuram_MPP School 0.0 28.7 90.69 0.5 0 NA 22/06/2024 23:00
14051 Anakapalli Rambilli Murakada 0.0 29.1 89.8 0.0 0 NA 22/06/2024 23:00
14052 Anakapalli Rolugunta Ratnampeta 0.0 34.29 71.19 0.0 0 NA 22/06/2024 16:00
14053 Alluri Sitharama Raju Gangavaram Nuvvumamidi 0.0 31.29 71.9 0.0 0 NA 22/06/2024 23:00
14054 Dr. B.R.Ambedkar Konaseema I. Polavaram Muramalla 0.0 28.89 83.3 0.0 0 NA 22/06/2024 23:00
14057 Kakinada Sankhavaram Pedamallapuram 0.0 28.7 87.9 0.0 0 NA 22/06/2024 23:00
14058 East Godavari Seethanagaram Nagampalle 0.0 32.4 70.69 0.5 0 NA 22/06/2024 23:00
14060 Eluru Bheemadole Chettunnapadu 0.0 29.39 81.09 0.0 0 NA 22/06/2024 23:00
14061 Eluru Buttayagudem Nuthiramannapalem 0.0 28.7 87.9 0.0 0 NA 22/06/2024 23:00
14063 East Godavari Devarapalle Laxmipuram 0.0 32.79 74.3 1.0 0 NA 22/06/2024 16:00
14064 Eluru Dwaraka Tirumala Jajulakunta 0.0 29.1 84.09 0.0 0 NA 22/06/2024 23:00
14065 Eluru Eluru Sriparru 0.0 29.6 82.19 0.1 0 NA 22/06/2024 23:00
14067 Eluru Koyyalagudem Bayyanagudem 0.0 27.7 83.3 0.89 0 NA 22/06/2024 23:00
12381 Chittoor Yadamarri Yadamari_ARG 0.0 0SNI 0SNI 0SNI 0SNI 22/06/2024 23:00
11520 Chittoor Gudipala Ramapuram 0.0 26.34 100.0 0.0 0SNI 22/06/2024 23:00
11521 Chittoor Gudipala Cheelapalle 0.0 27.69 85.71 0.0 0SNI 22/06/2024 21:00
12350 Visakhapatnam Gopalapatnam GVMC_PHC_Butchiraju palem_ARG 0.0 0SNI 0SNI 0SNI 0SNI 22/06/2024 23:00
12304 Guntur Guntur East Yadava_High_School_ARG 0.0 0SNI 0SNI 0SNI 0SNI 22/06/2024 17:00
12244 Sri Potti Sriramulu Nellore Nellore Urban P.M.R.High_School_ARG 0.0 0SNI 0SNI 0SNI 0SNI 22/06/2024 23:00
10484 Kurnool Kurnool Urban Kurnool 0.0 31.21 72.83 0.0 0 NA 22/06/2024 11:00
14097 Guntur Guntur West Peda Palakaluru 0.0 30.2 75.19 0.0 0 NA 22/06/2024 23:00
14098 Palnadu Gurajala Madugula 0.0 29.1 83.3 1.79 0 NA 22/06/2024 23:00
14099 Palnadu Ipuru Inumella 0.0 29.5 79.3 0.0 0 NA 22/06/2024 23:00
14100 Guntur Kakumanu Pandrapadu 0.0 31.7 70.5 0.0 0 NA 22/06/2024 23:00
14101 Palnadu Karempudi Sankarapuramsiddhayi 0.0 30.0 76.3 0.69 0 NA 22/06/2024 23:00
14103 Guntur Kollipara Vallabhapuram 0.0 27.6 84.9 0.0 0 NA 22/06/2024 23:00
14104 Palnadu Krosuru Dodleru 0.0 30.7 75.4 0.0 0 NA 22/06/2024 23:00
14105 Palnadu Krosuru Garikapadu 0.0 36.09 57.09 1.5 0 NA 22/06/2024 15:00
14106 Palnadu Macherla Thallapalli 0.0 30.79 73.4 0.0 0 NA 22/06/2024 23:00
14107 Palnadu Nadendla Chirumamilla 0.0 31.7 67.9 0.0 0 NA 22/06/2024 23:00
14108 Palnadu Nekarikallu Chagallu 0.0 29.29 71.9 0.0 0 NA 22/06/2024 23:00
14109 Palnadu Narasaraopet Kakani 0.0 33.4 64.59 10.1 0 NA 22/06/2024 23:00
14110 Palnadu Narasaraopet Ravipadu 0.0 33.09 64.0 0.0 0 NA 22/06/2024 23:00
14111 Palnadu Nuzendla Chintala Cheruvu 0.0 31.2 70.9 0.3 0 NA 22/06/2024 23:00
14112 Palnadu Nuzendla Uppalapadu 0.0 31.6 64.09 0.0 0 NA 22/06/2024 23:00
14113 Palnadu Nuzendla Mulkaluru 0.0 31.0 68.59 0.0 0 NA 22/06/2024 23:00
14114 Palnadu Pedakurapadu Kasipadu 0.0 27.5 91.09 0.0 0 NA 22/06/2024 23:00
14115 Guntur Phirangipuram Bethapudi 0.0 29.89 73.09 0.0 0 NA 22/06/2024 23:00
14116 Palnadu Piduguralla Karalapadu 0.0 29.79 76.0 1.39 0 NA 22/06/2024 23:00
14117 Guntur Prathipadu Vangipuram 0.0 30.89 66.59 0.0 0 NA 22/06/2024 23:00
14118 Bapatla Repalle Kamarajugadda 0.0 32.0 72.8 1.29 0 NA 22/06/2024 23:00
14119 Palnadu Sattenapalli Kattamuru 0.0 35.9 56.7 0.0 0 NA 22/06/2024 15:00
14120 Palnadu Sattenapalli Nandigama 0.0 29.2 76.3 0.0 0 NA 22/06/2024 23:00
14121 Palnadu Savalyapuram Velpuru 0.0 30.79 71.0 0.0 0 NA 22/06/2024 23:00
14123 Guntur Thulluru Inavolu 0.0 28.29 86.0 0.0 0 NA 22/06/2024 23:00
14124 Palnadu Veldurthy Kotta Pulla Reddy Gudam 0.0 30.5 71.3 0.0 0 NA 22/06/2024 23:00
14125 Palnadu Vinukonda Nadigadda 0.0 32.29 67.59 0.0 0 NA 22/06/2024 23:00
14126 Palnadu Vinukonda Nagulavaram 0.0 30.89 69.19 0.0 0 NA 22/06/2024 23:00
14128 Bapatla Ballikurava Uppumagulur 0.0 32.0 65.69 0.6 0 NA 22/06/2024 23:00
14129 Bapatla Ballikurava Vallapalli 0.0 32.79 62.09 0.2 0 NA 22/06/2024 23:00
14130 Prakasam Chandrasekharapuram Ambavaram 0.0 30.7 63.2 0.0 0 NA 22/06/2024 23:00
14131 Prakasam Chandrasekharapuram Kovilampadu 0.0 31.1 59.59 0.3 0 NA 22/06/2024 23:00
14132 Prakasam Chimakurthy Nippatla Padu 0.0 33.4 66.59 0.0 0 NA 22/06/2024 23:00
14133 Prakasam Chimakurthy Pallamalli 0.0 32.0 70.5 0.5 0 NA 22/06/2024 23:00
14134 Prakasam Darsi Chandalur 0.0 31.1 65.5 0.0 0 NA 22/06/2024 23:00
14135 Prakasam Darsi Kothapalli 0.0 36.9 50.2 1.7 0 NA 22/06/2024 16:00
14137 Prakasam Giddalur Kommunuru 0.0 35.29 56.9 0.89 0 NA 22/06/2024 16:00
14138 Sri Potti Sriramulu Nellore Gudluru Darakanipadu 0.0 30.39 78.3 0.6 0 NA 22/06/2024 23:00
14139 Prakasam Hanumanthunipadu Vemula Padu 0.0 34.79 54.29 0.0 0 NA 22/06/2024 17:00
14141 Bapatla Janakavarampanguluru Ramakuru 0.0 30.39 75.19 0.0 0 NA 22/06/2024 23:00
14001 Srikakulam Burja Madanapuram 0.0 29.2 83.59 1.2 0 NA 22/06/2024 23:00
14002 Srikakulam Jalumuru Syrigam 0.0 32.0 75.5 0.4 0 NA 22/06/2024 17:00
14003 Srikakulam Nandigam Madanapuram 0.0 28.7 77.3 0.0 0 NA 22/06/2024 23:00
14004 Vizianagaram Santhakaviti Gullasitharamapuram 0.0 28.0 82.8 0.0 0 NA 22/06/2024 23:00
14005 Srikakulam Saravakota Nowthala 0.0 30.5 78.69 0.0 0 NA 22/06/2024 23:00
11508 Annamayya Pedda Thippasamudram Kandukuru 0.0 25.82 74.97 0.17 0SNI 22/06/2024 21:00
11535 Annamayya Pedda Thippasamudram Varikasuvupalli 0.0 25.62 77.95 5.93 0SNI 22/06/2024 23:00
10521 Annamayya Pedda Thippasamudram Peddathippasamudra 0.0 26.19 63.6 4.39 943.0 22/06/2024 23:00
10502 Annamayya Beerongi Kothakota B Kothakota 0.0 26.21 80.09 0.08 0 NA 22/06/2024 20:00
11529 Annamayya Madanapalle Vempalle 0.0 24.82 80.51 3.44 0SNI 22/06/2024 23:00
10071 Annamayya Madanapalle Mandapalle 0.0 26.26 72.72 4.99 925.6 22/06/2024 23:00
13029 Annamayya Madanapalle MRO_Office_ARG 0.0 0SNI 0SNI 0SNI 0SNI 22/06/2024 23:00
10518 Annamayya Nimmanapalle Nimmanapalle 0.0 26.66 73.84 3.35 938.4 22/06/2024 23:00
11538 Chittoor Sodam Reddivaripalli 0.0 0 NA 0 NA 0.0 0SNI 22/06/2024 23:00
12434 Chittoor Sodam Sodam_ARG 0.0 0SNI 0SNI 0SNI 0SNI 22/06/2024 23:00
10116 Tirupati Pakala Pakala 0.0 0 NA 0 NA 0.0 0 NA 22/06/2024 23:00
11545 Chittoor Vedurukuppam Venugopalapuram 0.0 26.5 79.05 0.0 0SNI 22/06/2024 23:00
10529 Tirupati Ramachandrapuram Nadavaluru 0.0 33.03 68.39 2.15 980.7 22/06/2024 18:00
12446 Tirupati Ramachandrapuram Ramachndrapuram_ARG 0.0 0SNI 0SNI 0SNI 0SNI 22/06/2024 23:00
11916 Tirupati Satyavedu Irugulam 0.0 30.03 83.02 3.61 0SNI 22/06/2024 23:00
10532 Tirupati Satyavedu Satyavedu 0.0 0 NA 0 NA 0.0 0 NA 22/06/2024 23:00
10110 Tirupati Nagalapuram Nagalapuram 0.0 29.95 81.39 0.0 990.9 22/06/2024 23:00
10519 Chittoor Nindra Nindra 0.0 27.87 18.17 0.08 994.9 22/06/2024 23:00
10545 Chittoor Vijayapuram Vijaya Puram 0.0 33.32 71.22 0.0 991.5 22/06/2024 18:00
10106 Chittoor Nagari Nagari 0.0 34.2 56.6 1.8 987.2 22/06/2024 17:00
13049 Chittoor Nagari RajivNagar_SubStation_ARG 0.0 0SNI 0SNI 0SNI 0SNI 22/06/2024 23:00
13051 Chittoor Nagari E.T.P_Plant_ARG 0.0 0SNI 0SNI 0SNI 0SNI 22/06/2024 23:00
13056 Chittoor Nagari Natham Kandriga_Substaion_ARG 0.0 0SNI 0SNI 0SNI 0SNI 22/06/2024 23:00
13058 Chittoor Nagari Pudupeta_SubStation_ARG 0.0 0SNI 0SNI 0SNI 0SNI 22/06/2024 19:00
13073 Tirupati Puttur SubStation_Kalyanapuram_ARG 0.0 0SNI 0SNI 0SNI 0SNI 22/06/2024 23:00
13061 Tirupati Puttur MPP_School_KKRK Puram_ARG 0.0 0SNI 0SNI 0SNI 0SNI 22/06/2024 23:00
13063 Tirupati Puttur MPP_School_K.M Agraharam_ARG 0.0 0SNI 0SNI 0SNI 0SNI 22/06/2024 23:00
13066 Tirupati Puttur MPP_School_Chowturu_ARG 0.0 0SNI 0SNI 0SNI 0SNI 22/06/2024 17:00
11527 Chittoor Karvetinagar Katherapalle 0.0 26.83 100.0 0.0 0SNI 22/06/2024 23:00
12372 Chittoor Karvetinagar Karvetinagar_ARG 0.0 0SNI 0SNI 0SNI 0SNI 22/06/2024 23:00
10531 Annamayya Ramasamudram Ramasamudram 0.0 24.54 82.63 0.0 918.4 22/06/2024 23:00
11922 Chittoor Punganuru Etavakili 0.0 0 NA 0 NA 2.15 0SNI 22/06/2024 23:00
10073 Chittoor Punganuru Punganur 0.0 25.47 73.09 0.0 924.5 22/06/2024 23:00
13033 Chittoor Punganuru Muncipal_Elementry_School_ARG 0.0 0SNI 0SNI 0SNI 0SNI 22/06/2024 23:00
13034 Chittoor Punganuru MarketYard_ARG 0.0 0SNI 0SNI 0SNI 0SNI 22/06/2024 23:00
13036 Chittoor Punganuru Municipal_Office_ARG 0.0 0SNI 0SNI 0SNI 0SNI 22/06/2024 23:00
11533 Chittoor Peddapanjani Muthukur 0.0 24.73 72.98 1.03 0SNI 22/06/2024 23:00
11534 Chittoor Peddapanjani Rayalapeta 0.0 23.74 74.53 0.0 0SNI 22/06/2024 23:00
11510 Chittoor Thavanampalle Pipally 0.0 25.57 96.34 0.0 0SNI 22/06/2024 23:00
11542 Chittoor Thavanampalle Kattakindapalle 0.0 24.16 100.0 0.0 0SNI 22/06/2024 23:00
10536 Chittoor Srirangarajapuram Sindurajapuram 0.0 0 NA 0 NA 0.0 0 NA 22/06/2024 16:00
11522 Chittoor Chittoor Bnrpeta 0.0 27.22 92.0 2.32 0SNI 22/06/2024 21:00
12401 Chittoor Chittoor Chengalrayamitta_ARG 0.0 0SNI 0SNI 0SNI 0SNI 22/06/2024 23:00
12406 Chittoor Chittoor Greamspetl_SS_ARG 0.0 0SNI 0SNI 0SNI 0SNI 22/06/2024 22:00
12409 Chittoor Chittoor Collectorate_Office_ARG 0.0 0SNI 0SNI 0SNI 0SNI 22/06/2024 23:00
12424 Chittoor Chittoor CRC_center_ARG 0.0 0SNI 0SNI 0SNI 0SNI 22/06/2024 23:00
13039 Chittoor Palamaner ELSR_WaterTank_Compound_ARG 0.0 0SNI 0SNI 0SNI 0SNI 22/06/2024 23:00
11509 Chittoor Baireddipalle Lakkanapalle 0.0 24.2 85.48 0.0 0SNI 22/06/2024 23:00
10503 Chittoor Baireddipalle Baireddi Palle 0.0 23.77 89.46 0.0 926.9 22/06/2024 23:00
11546 Chittoor Venkatagiri Kota Thota Kanuma 0.0 25.36 80.11 3.44 0SNI 22/06/2024 23:00
11547 Chittoor Venkatagiri Kota Suddala Kuppam 0.0 0 NA 0 NA 5.59 0SNI 22/06/2024 22:00
10544 Chittoor Venkatagiri Kota Venkatagiri Kota 0.0 0 NA 0 NA 0.68 0 NA 22/06/2024 23:00
11553 Chittoor Santhipuram Kalumala Doddi 0.0 0 NA 0 NA 4.04 0SNI 22/06/2024 23:00
10511 Chittoor Gudupalle Gudi Palle 0.0 25.11 95.5 3.52 923.8 22/06/2024 23:00
10996 Chittoor Kuppam Mallanur 0.0 24.52 100.0 0.0 0 NA 22/06/2024 23:00
10530 Chittoor Ramakuppam Bandarupalle 0.0 24.62 90.55 0.0 918.4 22/06/2024 23:00
11511 Chittoor Bangarupalem Thumba Kuppam 0.0 31.17 67.68 1.63 0SNI 22/06/2024 17:00
11512 Chittoor Bangarupalem Ragimanipenta 0.0 24.96 83.53 0.0 0SNI 22/06/2024 23:00
10558 Tirupati Dakkili Dakkili 0.0 30.27 77.2 0.0 1014.8 22/06/2024 23:00
13265 Tirupati Venkatagiri MunicpalOffice_ARG 0.0 0SNI 0SNI 0SNI 0SNI 22/06/2024 23:00
14368 Ananthapuramu Yadiki Puppala 0.0 30.1 62.7 11.39 0 NA 22/06/2024 23:00
14369 Ananthapuramu Yellanur Boppepalle 0.0 31.39 57.09 0.1 0 NA 22/06/2024 23:00
14370 Ananthapuramu Yellanur Chintakayamanda 0.0 35.9 48.5 0.0 0 NA 22/06/2024 16:00
14371 Ananthapuramu Yellanur Vennapusapalle 0.0 31.29 61.0 2.2 0 NA 22/06/2024 23:00
14372 Kurnool Adoni Arekal 0.0 27.0 77.09 1.29 0 NA 22/06/2024 23:00
14373 Kurnool Adoni Santhakadaluru 0.0 27.0 78.9 1.6 0 NA 22/06/2024 23:00
14374 Kurnool Adoni Pedda Thumbalam 0.0 27.89 74.09 0.8 0 NA 22/06/2024 23:00
14375 Kurnool Adoni Pesalabanda 0.0 27.7 75.5 2.59 0 NA 22/06/2024 23:00
14377 Kurnool Aspari Chinnahothur 0.0 27.89 61.2 0.3 0 NA 22/06/2024 23:00
14378 Kurnool Aspari Khyruppala 0.0 28.6 71.59 0.0 0 NA 22/06/2024 23:00
14379 Kurnool Aspari Tangaradona 0.0 27.1 72.4 0.0 0 NA 22/06/2024 23:00
14380 Nandyal Bandi Atmakur Pedda Devalapuram 0.0 29.7 74.69 0.0 0 NA 22/06/2024 23:00
14381 Nandyal Bethamcherla Rangapuram 0.0 29.2 70.0 0.0 0 NA 22/06/2024 23:00
14382 Kurnool C.Belagal Polakal 0.0 32.79 64.69 2.29 0 NA 22/06/2024 17:00
14383 Kurnool Chippagiri Nemakallu 0.0 27.5 71.69 0.0 0 NA 22/06/2024 23:00
14385 Kurnool Devanakonda Palakurthy 0.0 27.7 75.59 0.0 0 NA 22/06/2024 23:00
14386 Nandyal Dhone Devarabanda 0.0 28.7 76.09 0.0 0 NA 22/06/2024 23:00
14387 Nandyal Gadivemula Gadigarevula 0.0 31.1 61.5 0.0 0 NA 22/06/2024 23:00
14388 Kurnool Gonegandla Handri Khairawadi 0.0 27.6 76.3 0.3 0 NA 22/06/2024 23:00
14389 Kurnool Halaharvi Chinthakunta Ss 0.0 27.29 72.4 0.0 0 NA 22/06/2024 23:00
14390 Kurnool Halaharvi Nitravatti 0.0 27.6 66.19 6.69 0 NA 22/06/2024 23:00
14391 Kurnool Halaharvi Siddapuram 0.0 28.2 71.3 0.0 0 NA 22/06/2024 23:00
14392 Kurnool Holagunda Gajjehalli 0.0 29.29 68.3 0.0 0 NA 22/06/2024 22:00
14393 Kurnool Holagunda Suluvoy 0.0 27.5 65.09 1.89 0 NA 22/06/2024 23:00
14394 Kurnool Kallur Laxmipuram 0.0 33.09 59.79 0.0 0 NA 22/06/2024 23:00
14395 Kurnool Kodumur Laddagiri 0.0 29.0 68.19 0.0 0 NA 22/06/2024 23:00
14396 Kurnool Kodumur Pulakurthy 0.0 29.0 68.69 2.29 0 NA 22/06/2024 23:00
14397 Kurnool Kodumur Pyalakurthy 0.0 29.0 71.69 1.29 0 NA 22/06/2024 23:00
14398 Nandyal Kolimigundla Boyala Uppalur 0.0 29.39 73.69 0.89 0 NA 22/06/2024 23:00
14399 Kurnool Kosigi Kollumanupeta 0.0 27.0 70.09 2.5 0 NA 22/06/2024 23:00
14400 Kurnool Kosigi Sathanur 0.0 28.5 66.09 1.39 0 NA 22/06/2024 23:00
14401 Nandyal Kothapalle Gokavaram 0.0 29.0 72.4 0.0 0 NA 22/06/2024 23:00
14403 Kurnool Kowthalam Nadichagi 0.0 28.2 70.5 0.69 0 NA 22/06/2024 23:00
14404 Kurnool Kowthalam Thovi 0.0 28.5 66.3 0.4 0 NA 22/06/2024 23:00
14405 Kurnool Krishnagiri Chityala 0.0 28.5 64.8 0.89 0 NA 22/06/2024 23:00
14406 Kurnool Krishnagiri Katarakonda 0.0 0 NA 0 NA 0.5 0 NA 22/06/2024 23:00
14409 Kurnool Mantralayam Vagaruru 0.0 29.0 68.3 0.5 0 NA 22/06/2024 23:00
14411 Nandyal Nandikotkur Santhanikota 0.0 29.5 69.09 0.0 0 NA 22/06/2024 23:00
14412 Kurnool Orvakal Sakunala 0.0 28.6 74.19 0.6 0 NA 22/06/2024 23:00
14413 Nandyal Owk Kondamanayuni Palli 0.0 30.29 67.09 0.5 0 NA 22/06/2024 23:00
14414 Nandyal Owk Ramapuram 0.0 31.79 63.0 0.0 0 NA 22/06/2024 23:00
14415 Nandyal Pamulapadu Maddur 0.0 30.2 69.09 0.0 0 NA 22/06/2024 23:00
14416 Nandyal Pamulapadu Thummalur 0.0 29.39 71.9 0.0 0 NA 22/06/2024 23:00
14417 Nandyal Panyam Anupur 0.0 29.2 79.5 0.0 0 NA 22/06/2024 23:00
14418 Nandyal Panyam Kowlur 0.0 28.0 74.0 0.0 0 NA 22/06/2024 23:00
14420 Kurnool Pattikonda Pandikona 0.0 28.2 71.69 0.0 0 NA 22/06/2024 23:00
14421 Nandyal Peapully Kalachetla 0.0 27.5 71.5 0.89 0 NA 22/06/2024 23:00
14423 Nandyal Rudravaram Perur 0.0 28.89 86.09 0.0 0 NA 22/06/2024 23:00
14424 Nandyal Sanjamala Lingam Dinne 0.0 31.2 61.9 0.0 0 NA 22/06/2024 23:00
14425 Nandyal Sanjamala Mudigedu 0.0 31.1 66.19 0.0 0 NA 22/06/2024 23:00
14427 Kurnool Tuggali Chennampalle 0.0 28.2 67.19 2.59 0 NA 22/06/2024 23:00
14428 Kurnool Veldurthy Narasapuram 0.0 28.79 71.4 0.3 0 NA 22/06/2024 23:00
14429 Kurnool Yemmiganur Kandanathi 0.0 28.1 71.3 1.29 0 NA 22/06/2024 23:00
14142 Prakasam Kanigiri Gudipadu 0.0 32.4 61.7 0.0 0 NA 22/06/2024 23:00
14144 Prakasam Konakanamitla Aswarayuni Palem 0.0 36.4 52.29 0.0 0 NA 22/06/2024 17:00
14145 Prakasam Kondapi K.Uppalapadu 0.0 31.0 75.69 0.89 0 NA 22/06/2024 23:00
14146 Prakasam Kurichedu Dekanakonda 0.0 35.7 50.79 1.7 0 NA 22/06/2024 17:00
14147 Prakasam Kurichedu West Gangavaram 0.0 32.5 63.79 0.3 0 NA 22/06/2024 23:00
14148 Prakasam Kurichedu West Naidupalem 0.0 35.59 57.59 2.0 0 NA 22/06/2024 17:00
14149 Sri Potti Sriramulu Nellore Lingasamudram Chinapavani 0.0 30.79 72.0 0.1 0 NA 22/06/2024 23:00
14150 Sri Potti Sriramulu Nellore Lingasamudram Mogilicharla 0.0 32.29 67.4 0.2 0 NA 22/06/2024 23:00
14151 Prakasam Markapuram Goguladinne 0.0 31.79 59.0 0.0 0 NA 22/06/2024 23:00
14153 Prakasam Marripudi Kakarla 0.0 36.2 53.5 2.0 0 NA 22/06/2024 17:00
14154 Prakasam Marripudi Vema Varam 0.0 32.2 61.2 0.0 0 NA 22/06/2024 23:00
14155 Prakasam Mundlamuru Marella 0.0 31.2 67.8 0.0 0 NA 22/06/2024 23:00
14156 Prakasam Mundlamuru Pulipadu 0.0 29.89 71.3 0.0 0 NA 22/06/2024 23:00
14157 Prakasam Mundlamuru Sankara Puram 0.0 30.89 75.3 0.0 0 NA 22/06/2024 23:00
14158 Prakasam Naguluppalapadu Vinodharyini Palam 0.0 30.0 85.9 0.0 0 NA 22/06/2024 23:00
14159 Prakasam Ongole Karavadi 0.0 30.79 74.5 1.2 0 NA 22/06/2024 23:00
14160 Prakasam Pamur Bodawada 0.0 32.59 65.9 0.2 0 NA 22/06/2024 23:00
14161 Prakasam Pamur Westkattakindapalli 0.0 31.29 59.29 0.0 0 NA 22/06/2024 23:00
14162 Bapatla Parchur Adusumalli 0.0 30.29 66.5 0.0 0 NA 22/06/2024 23:00
14164 Prakasam Pedacherlopalle Guntu Palli 0.0 0 NA 42.4 1.79 0 NA 22/06/2024 17:00
14165 Prakasam Podili Dasalla Palle 0.0 31.6 69.3 0.6 0 NA 22/06/2024 23:00
14166 Prakasam Podili Kambhalapadu 0.0 31.39 65.59 0.0 0 NA 22/06/2024 23:00
14167 Prakasam Podili Podili 0.0 31.79 71.59 0.0 0 NA 22/06/2024 23:00
14168 Prakasam Ponnaluru Malepadu 0.0 33.4 55.0 0.0 0 NA 22/06/2024 23:00
14170 Prakasam SanthanuthalaPadu Chilakapadu 0.0 31.5 65.3 0.0 0 NA 22/06/2024 23:00
14171 Prakasam SanthanuthalaPadu Mangamuru 0.0 31.2 66.4 2.0 0 NA 22/06/2024 23:00
14172 Prakasam Tarlupadu Thummalacheruvu 0.0 31.6 57.79 0.1 0 NA 22/06/2024 23:00
14173 Prakasam Tripuranthakam Medapi 0.0 30.5 74.5 0.0 0 NA 22/06/2024 23:00
14174 Sri Potti Sriramulu Nellore Ulavapadu Bheemavaram 0.0 30.6 76.19 1.89 0 NA 22/06/2024 23:00
14175 Prakasam Veligandla Kotala Palli 0.0 36.2 51.4 0.8 0 NA 22/06/2024 15:00
14176 Sri Potti Sriramulu Nellore Voletivaripalem Naladalapur 0.0 29.89 77.19 0.0 0 NA 22/06/2024 23:00
14177 Prakasam Zarugumilli Narasingolu 0.0 29.79 80.3 1.1 0 NA 22/06/2024 23:00
14179 Prakasam Zarugumilli Vardhinenivari Palem 0.0 32.7 61.09 0.1 0 NA 22/06/2024 23:00
14180 Sri Potti Sriramulu Nellore Allur Isakapalli 0.0 30.6 77.19 0.3 0 NA 22/06/2024 23:00
14181 Sri Potti Sriramulu Nellore Anumasamudrampeta Vasali 0.0 36.4 52.09 2.59 0 NA 22/06/2024 17:00
14182 Sri Potti Sriramulu Nellore Atmakur Battepadu 0.0 31.0 68.9 0.0 0 NA 22/06/2024 23:00
14183 Sri Potti Sriramulu Nellore Atmakur Mahimaluru 0.0 32.0 63.0 0.0 0 NA 22/06/2024 23:00
14184 Tirupati Balayapalli Chilamannuru 0.0 35.5 55.4 1.5 0 NA 22/06/2024 16:00
14185 Tirupati Balayapalli Hasta Kaveri 0.0 30.1 67.09 0.6 0 NA 22/06/2024 23:00
14186 Sri Potti Sriramulu Nellore Buchireddipalem Munulapudi 0.0 35.7 57.7 0.0 0 NA 22/06/2024 17:00
14187 Tirupati Chittamur Gunupudu 0.0 29.39 90.69 8.39 0 NA 22/06/2024 23:00
14188 Tirupati Chittamur Mallam 0.0 30.79 73.0 0.0 0 NA 22/06/2024 23:00
14189 Tirupati Dakkili Attalasiddavaram 0.0 31.2 65.5 0.69 0 NA 22/06/2024 23:00
14190 Tirupati Dakkili Mopuru 0.0 36.59 56.9 1.6 0 NA 22/06/2024 17:00
14191 Tirupati Doravarisatram Poolathota 0.0 30.89 71.9 0.0 0 NA 22/06/2024 23:00
14192 Tirupati Doravarisatram Thogaramudi 0.0 35.59 58.59 0.0 0 NA 22/06/2024 17:00
14193 Sri Potti Sriramulu Nellore Jaladanki Chamadala 0.0 32.29 67.19 1.0 0 NA 22/06/2024 23:00
14194 Sri Potti Sriramulu Nellore Kaligiri Dabbagunta 0.0 31.5 70.69 1.0 0 NA 22/06/2024 23:00
14195 Sri Potti Sriramulu Nellore Kaligiri Gudladona 0.0 31.1 72.0 0.0 0 NA 22/06/2024 23:00
14196 Sri Potti Sriramulu Nellore Kaligiri Velagapadu 0.0 31.6 68.0 0.0 0 NA 22/06/2024 23:00
14197 Sri Potti Sriramulu Nellore Kaluvoya Cheepinapi 0.0 31.2 65.19 0.0 0 NA 22/06/2024 23:00
14198 Sri Potti Sriramulu Nellore Kondapuram Thurpuyerraballe 0.0 33.5 58.09 0.1 0 NA 22/06/2024 23:00
14199 Tirupati Kota Allampadu 0.0 30.79 76.5 1.29 0 NA 22/06/2024 23:00
14200 Tirupati Kota Chittedu 0.0 30.29 77.5 0.0 0 NA 22/06/2024 23:00
14201 Sri Potti Sriramulu Nellore Manubolu Akkampet 0.0 30.1 74.8 0.6 0 NA 22/06/2024 23:00
14202 Sri Potti Sriramulu Nellore Manubolu Kattuvapalle 0.0 32.2 72.09 0.5 0 NA 22/06/2024 23:00
14203 Sri Potti Sriramulu Nellore Marripadu Brahmanapalle 0.0 30.39 68.9 1.5 0 NA 22/06/2024 23:00
14204 Sri Potti Sriramulu Nellore Marripadu Chinamachanuru 0.0 32.2 60.9 1.0 0 NA 22/06/2024 23:00
14205 Sri Potti Sriramulu Nellore Muthukur Krishnapatnam 0.0 30.0 82.59 0.0 0 NA 22/06/2024 23:00
14206 Tirupati Naidupet Naidupeta 0.0 33.09 63.5 1.0 0 NA 22/06/2024 23:00
14209 Sri Potti Sriramulu Nellore Podalakur Mahammadapuram 0.0 31.2 69.5 0.0 0 NA 22/06/2024 23:00
14210 Sri Potti Sriramulu Nellore Podalakur Navooru 0.0 30.2 77.59 0.2 0 NA 22/06/2024 23:00
14211 Sri Potti Sriramulu Nellore Podalakur Pulikallu 0.0 35.5 55.5 0.89 0 NA 22/06/2024 17:00
14212 Sri Potti Sriramulu Nellore Rapur Kandaleru Reservoir 0.0 31.39 66.8 0.1 0 NA 22/06/2024 23:00
14213 Sri Potti Sriramulu Nellore Rapur Tegacherla 0.0 0 NA 46.29 0.0 0 NA 22/06/2024 17:00
14214 Sri Potti Sriramulu Nellore Rapur Vepinapiakkmambapuram 0.0 32.7 66.19 0.0 0 NA 22/06/2024 23:00
14215 Sri Potti Sriramulu Nellore Seetharamapuram Pabbuletipalle 0.0 30.29 66.59 0.6 0 NA 22/06/2024 23:00
14216 Tirupati Sullurpeta Manga Nellore 0.0 33.2 63.0 0.0 0 NA 22/06/2024 23:00
14217 Sri Potti Sriramulu Nellore Sydapuram Kalichedu 0.0 30.39 72.3 14.3 0 NA 22/06/2024 23:00
14218 Sri Potti Sriramulu Nellore Sydapuram Palur 0.0 29.0 75.9 0.0 0 NA 22/06/2024 23:00
14219 Tirupati Tada Bheemulavaripalem 0.0 30.29 79.8 0.8 0 NA 22/06/2024 23:00
14220 Tirupati Tada Konduru 0.0 31.1 71.3 0.0 0 NA 22/06/2024 23:00
14221 Sri Potti Sriramulu Nellore Udayagiri Gudinarava 0.0 31.6 62.9 0.2 0 NA 22/06/2024 23:00
14222 Tirupati Vakadu Nidigurthi 0.0 35.29 60.9 0.0 0 NA 22/06/2024 16:00
14223 Sri Potti Sriramulu Nellore Varikuntapadu Thimmareddipalli 0.0 30.6 66.3 0.0 0 NA 22/06/2024 23:00
14224 Sri Potti Sriramulu Nellore Varikuntapadu Thurpu Rompidodla 0.0 36.5 53.0 2.0 0 NA 22/06/2024 17:00
14225 Sri Potti Sriramulu Nellore Venkatachalam Edagali 0.0 30.7 76.8 1.39 0 NA 22/06/2024 23:00
14226 Tirupati Venkatagiri Lalapeta 0.0 35.7 56.0 0.0 0 NA 22/06/2024 16:00
14227 Tirupati Venkatagiri Papamambapuram 0.0 30.0 73.3 0.69 0 NA 22/06/2024 23:00
14228 Tirupati Venkatagiri Yathaluru 0.0 32.9 57.2 0.0 0 NA 22/06/2024 23:00
12630 Ananthapuramu Tadipatri Ururi Chintala_ARG 0.0 0SNI 0SNI 0SNI 0SNI 22/06/2024 17:00
10875 Ananthapuramu Pamidi Yeddulapalli 0.0 28.44 60.68 0.0 0 NA 22/06/2024 23:00
12969 Ananthapuramu Pamidi Model_School_ARG 0.0 0SNI 0SNI 0SNI 0SNI 22/06/2024 18:00
11405 Ananthapuramu Beluguppa Gangavaram 0.0 31.73 58.03 0 NA 0SNI 22/06/2024 16:00
12180 Ananthapuramu Brahmasamudram Brahmasamudram_ARG 0.0 0SNI 0SNI 0SNI 0SNI 22/06/2024 20:00
10211 Ananthapuramu Kalyanadurg Kalyandrug 0.0 25.52 76.23 0.0 942.7 22/06/2024 23:00
12999 Ananthapuramu Kalyanadurg Municipal_Office_ARG 0.0 0SNI 0SNI 0SNI 0SNI 22/06/2024 23:00
13000 Ananthapuramu Kalyanadurg Model_School_ARG 0.0 0SNI 0SNI 0SNI 0SNI 22/06/2024 19:00
12589 Ananthapuramu Kalyanadurg Muddinayanapalle_ARG 0.0 0SNI 0SNI 0SNI 0SNI 22/06/2024 17:00
11410 Ananthapuramu Atmakur Sanapa 0.0 28.11 67.98 14.79 0SNI 22/06/2024 23:00
11419 Ananthapuramu Kudair Marutla 0.0 27.73 64.64 0.0 0SNI 22/06/2024 23:00
12586 Ananthapuramu Kudair M.M_Hali_ARG 0.0 0SNI 0SNI 0SNI 0SNI 22/06/2024 14:00
12198 Ananthapuramu Putlur Putlur_ARG 0.0 0SNI 0SNI 0SNI 0SNI 22/06/2024 23:00
11431 Ananthapuramu Putlur Kondapuram 0.0 30.53 62.19 6.11 0SNI 22/06/2024 23:00
12638 Ananthapuramu Yellanur Kalluru_ARG 0.0 0SNI 0SNI 0SNI 0SNI 22/06/2024 20:00
12639 Ananthapuramu Yellanur Kuchivaripalli_ARG 0.0 0SNI 0SNI 0SNI 0SNI 22/06/2024 17:00
11449 Ananthapuramu B.K. Samudram Rekulakunta 0.0 29.06 64.7 10.58 0SNI 22/06/2024 23:00
12164 Ananthapuramu Anantapur Ambedkar_Bhavan_ARG 0.0 0SNI 0SNI 0SNI 0SNI 22/06/2024 23:00
10863 Ananthapuramu Rapthadu Hampapuram 0.0 28.88 65.31 11.62 0 NA 22/06/2024 23:00
10867 Ananthapuramu Settur Settur 0.0 27.63 59.24 8.95 0 NA 22/06/2024 21:00
12600 Ananthapuramu Kundurpi Yanamaladoddi_ARG 0.0 0SNI 0SNI 0SNI 0SNI 22/06/2024 17:00
11452 Ananthapuramu Kambadur Kadiridevarapalli 0.0 26.33 73.95 11.19 0SNI 22/06/2024 23:00
13214 West Godavari Tadepalligudem ElementarySchool_Juvvalapalem_ARG 0.0 0SNI 0SNI 0SNI 0SNI 22/06/2024 23:00
13233 West Godavari Tadepalligudem MagantiAnnapurnaSchool_ARG 0.0 0SNI 0SNI 0SNI 0SNI 22/06/2024 23:00
13235 West Godavari Tadepalligudem VeterinaryHospital_Pathuru_ARG 0.0 0SNI 0SNI 0SNI 0SNI 22/06/2024 23:00
10775 Eluru Unguturu Narayanapuram 0.0 35.1 68.24 0.0 996.3 22/06/2024 18:00
11771 Eluru Bheemadole Pulla 0.0 30.59 79.05 0.0 0SNI 22/06/2024 20:00
10763 Eluru Pedapadu Kalaparru 0.0 31.06 83.99 0.0 1012.4 22/06/2024 20:00
10216 Eluru Eluru Eluru 0.0 31.31 77.12 4.73 997.9 22/06/2024 20:00
12351 Eluru Nidamarru Nidamarru_ARG 0.0 0SNI 0SNI 0SNI 0SNI 22/06/2024 23:00
10764 West Godavari Pentapadu Prathipadu 0.0 34.55 71.93 0.0 996.6 22/06/2024 15:00
12344 West Godavari Pentapadu Pentapadu_ARG 0.0 0SNI 0SNI 0SNI 0SNI 22/06/2024 23:00
13210 West Godavari Tanuku WaterTreatmentPlant_ARG 0.0 0SNI 0SNI 0SNI 0SNI 22/06/2024 23:00
10748 West Godavari Attili Attili 0.0 33.63 66.89 4.04 995.1 22/06/2024 16:00
10762 West Godavari Palacoderu Mogallu 0.0 0 NA 0 NA 0.0 0 NA 22/06/2024 23:00
14245 Y.S.R Gopavaram Madakalavaripalle 0.0 30.6 66.09 1.0 0 NA 22/06/2024 23:00
14247 Y.S.R Jammalamadugu Gudemcheruvu 0.0 27.2 87.69 0.0 0 NA 22/06/2024 23:00
14249 Annamayya Lakkireddipalli Brahmanayerragudi 0.0 28.7 72.0 0.5 0 NA 22/06/2024 23:00
14251 Y.S.R Mylavaram Bestavemula 0.0 31.1 66.59 0.8 0 NA 22/06/2024 23:00
14252 Annamayya Nandalur Chennayagarepalli 0.0 33.59 59.0 2.2 0 NA 22/06/2024 12:00
14253 Annamayya Nandalur Nallathimmayapalle 0.0 30.29 72.19 0.0 0 NA 22/06/2024 23:00
14254 Y.S.R Peddamudiam Pedda Pasupalle 0.0 29.7 73.3 2.0 0 NA 22/06/2024 23:00
14256 Y.S.R Porumamilla Korrapatupalle 0.0 30.6 66.9 0.1 0 NA 22/06/2024 23:00
14257 Y.S.R Porumamilla Pulliveedu 0.0 30.0 69.59 0.0 0 NA 22/06/2024 23:00
14259 Annamayya Rajampet Seshamambapuram 0.0 30.2 68.9 0.0 0 NA 22/06/2024 23:00
14260 Annamayya Rajampet Tallapaka 0.0 31.2 63.7 0.0 0 NA 22/06/2024 23:00
14261 Y.S.R Rajupalem Parlapadu 0.0 29.39 68.4 0.0 0 NA 22/06/2024 23:00
14262 Annamayya Ramapuram Chitlur 0.0 28.5 67.69 0.0 0 NA 22/06/2024 23:00
14265 Annamayya Sambepalle Settipalle 0.0 28.2 73.9 0.0 0 NA 22/06/2024 23:00
14266 Y.S.R Simhadripuram Sunkesula 0.0 30.5 65.69 0.5 0 NA 22/06/2024 23:00
14268 Y.S.R Thondur Santhakovvur 0.0 29.6 70.9 13.1 0 NA 22/06/2024 23:00
14269 Y.S.R Thondur Thondur 0.0 30.7 63.29 0.3 0 NA 22/06/2024 23:00
14270 Annamayya Veeraballe Gadikota 0.0 34.7 53.7 1.29 0 NA 22/06/2024 17:00
14271 Y.S.R Vempalli Ramireddi Palle 0.0 29.79 74.0 0.0 0 NA 22/06/2024 23:00
14272 Y.S.R Vemula Nallacheruvupalle 0.0 30.7 68.19 3.09 0 NA 22/06/2024 23:00
14273 Sri Sathya Sai Amadagur Mohammadabad 0.0 25.89 74.9 1.5 0 NA 22/06/2024 23:00
14275 Ananthapuramu Anantapur Hlc Colony 0.0 29.6 62.9 0.0 0 NA 22/06/2024 23:00
14276 Ananthapuramu Anantapur Itikalapalle 0.0 29.1 67.9 2.4 0 NA 22/06/2024 23:00
14277 Ananthapuramu Anantapur Katiganikalva 0.0 28.89 66.5 3.09 0 NA 22/06/2024 23:00
14279 Sri Sathya Sai Bathalapalli Dampetla 0.0 29.5 66.3 1.0 0 NA 22/06/2024 23:00
14280 Sri Sathya Sai Bathalapalli Malyavantham 0.0 29.79 66.4 2.0 0 NA 22/06/2024 23:00
14282 Ananthapuramu Bommanahal Kolaganahalli 0.0 26.5 72.8 0.0 0 NA 22/06/2024 23:00
14283 Ananthapuramu Bommanahal Kuruvalli 0.0 28.6 66.0 2.79 0 NA 22/06/2024 23:00
14284 Ananthapuramu Brahmasamudram Vepalaparthy 0.0 26.39 75.59 0.3 0 NA 22/06/2024 23:00
14285 Sri Sathya Sai Bukkapatnam Kothakota 0.0 32.5 57.2 1.39 0 NA 22/06/2024 17:00
14287 Ananthapuramu B.K. Samudram Vadiampeta 0.0 29.5 62.59 0.0 0 NA 22/06/2024 23:00
14288 Sri Sathya Sai Chennekothapalle Poletipalle 0.0 25.7 90.5 0.0 0 NA 22/06/2024 23:00
14289 Sri Sathya Sai Chilamathur Kodikonda 0.0 24.6 72.69 2.5 0 NA 22/06/2024 23:00
14290 Sri Sathya Sai Chilamathur Veerapuram 0.0 24.7 79.8 2.7 0 NA 22/06/2024 23:00
14291 Ananthapuramu D.Hirehal Dodaghatta 0.0 26.7 69.09 0.6 0 NA 22/06/2024 23:00
14292 Ananthapuramu D.Hirehal Malapanagudi 0.0 26.6 71.5 3.09 0 NA 22/06/2024 23:00
14293 Ananthapuramu D.Hirehal Pulakurthi 0.0 26.7 66.4 3.9 0 NA 22/06/2024 23:00
14294 Sri Sathya Sai Dharmavaram Chigicherla 0.0 34.5 58.59 2.9 0 NA 22/06/2024 16:00
10828 Sri Sathya Sai Talupula Talupula 0.0 28.79 63.42 2.58 0 NA 22/06/2024 23:00
10855 Sri Sathya Sai Nambulapulakunta NP.Kunta 0.0 28.76 65.76 8.95 0 NA 22/06/2024 23:00
10840 Sri Sathya Sai Gandlapenta Gajulavaripalli 0.0 0 NA 0 NA 0.17 0 NA 22/06/2024 17:00
11451 Sri Sathya Sai Kadiri Kadiri 0.0 0 NA 0 NA 11.7 0SNI 22/06/2024 23:00
13025 Sri Sathya Sai Kadiri Municipal_Office_ARG 0.0 0SNI 0SNI 0SNI 0SNI 22/06/2024 23:00
13026 Sri Sathya Sai Kadiri Govt.Junior_College_ARG 0.0 0SNI 0SNI 0SNI 0SNI 22/06/2024 23:00
11425 Sri Sathya Sai Nallamada Pulagampalle 0.0 31.25 64.95 0.08 0SNI 22/06/2024 15:00
12615 Sri Sathya Sai Bukkapatnam Gunipalli_ARG 0.0 0SNI 0SNI 0SNI 0SNI 22/06/2024 20:00
10847 Sri Sathya Sai Kothacheruvu Kothacheruvu 0.0 24.36 82.96 0.0 952.8 22/06/2024 22:00
11408 Sri Sathya Sai Chennekothapalle Kanumukkala 0.0 33.09 56.06 0.0 0SNI 22/06/2024 17:00
10837 Sri Sathya Sai Chennekothapalle CK Palle 0.0 31.12 57.29 0.77 0 NA 22/06/2024 19:00
12566 Sri Sathya Sai Chennekothapalle Medapuram_ARG 0.0 0SNI 0SNI 0SNI 0SNI 22/06/2024 16:00
11936 Sri Sathya Sai Roddam Kallukunta 0.0 0 NA 0 NA 11.19 0SNI 22/06/2024 23:00
11423 Sri Sathya Sai Madakasira R Anantapuram 0.0 29.43 66.53 0.0 0SNI 22/06/2024 18:00
13001 Sri Sathya Sai Madakasira APDDWAMA_Office_ARG 0.0 0SNI 0SNI 0SNI 0SNI 22/06/2024 23:00
12602 Sri Sathya Sai Madakasira Kothalam_ARG 0.0 0SNI 0SNI 0SNI 0SNI 22/06/2024 23:00
10830 Sri Sathya Sai Amarapuram Amarapuram 0.0 25.22 78.4 4.64 927.4 22/06/2024 23:00
12184 Sri Sathya Sai Gudibanda Gudibanda_ARG 0.0 0SNI 0SNI 0SNI 0SNI 22/06/2024 19:00
11415 Sri Sathya Sai Gudibanda Morubagal 0.0 0 NA 0 NA 0.0 0SNI 22/06/2024 23:00
13182 Nandyal Allagadda MPP_School_ P.Nagireddypalle_ARG 0.0 0SNI 0SNI 0SNI 0SNI 22/06/2024 23:00
10826 Sri Sathya Sai Agali Agali 0.0 0 NA 0 NA 0.0 0 NA 22/06/2024 23:00
12830 Sri Sathya Sai Agali Aloudi_ARG 0.0 0SNI 0SNI 0SNI 0SNI 22/06/2024 18:00
10196 Sri Sathya Sai Parigi Sevamandir 0.0 0 NA 0 NA 3.7 0 NA 22/06/2024 23:00
11428 Sri Sathya Sai Penukonda Gutturu 0.0 24.0 96.11 0.0 0SNI 22/06/2024 23:00
13013 Sri Sathya Sai Puttaparthy MRO_Office_ARG 0.0 0SNI 0SNI 0SNI 0SNI 22/06/2024 23:00
11444 Sri Sathya Sai Tanakal Balasamudram 0.0 26.92 69.92 4.47 0SNI 22/06/2024 23:00
10829 Sri Sathya Sai Amadagur Amadagur 0.0 0 NA 0 NA 10.24 0 NA 22/06/2024 23:00
11456 Sri Sathya Sai Somandepalli Chalakur 0.0 25.13 66.44 0.0 0SNI 22/06/2024 23:00
12020 Sri Sathya Sai Hindupur Hindupur_RG 0.0 0SNI 0SNI 0SNI 0SNI 22/06/2024 22:00
13006 Sri Sathya Sai Hindupur Jhansi_Lakshmibai_M.P.U.P_School_ARG 0.0 0SNI 0SNI 0SNI 0SNI 22/06/2024 23:00
13009 Sri Sathya Sai Hindupur MPDO_Office_ARG 0.0 0SNI 0SNI 0SNI 0SNI 22/06/2024 23:00
10850 Sri Sathya Sai Lepakshi Lepakshi 0.0 24.11 81.63 0.0 0 NA 22/06/2024 23:00
12601 Sri Sathya Sai Lepakshi Sirivaram_ARG 0.0 0SNI 0SNI 0SNI 0SNI 22/06/2024 17:00
12698 Kurnool Devanakonda Ternekal_ARG 0.0 0SNI 0SNI 0SNI 0SNI 22/06/2024 23:00
11292 Kurnool Veldurthy Govardhanagiri 0.0 29.12 72.98 4.73 0SNI 22/06/2024 23:00
12733 Kurnool Veldurthy Sarparajapuram_ARG 0.0 0SNI 0SNI 0SNI 0SNI 22/06/2024 16:00
12126 Nandyal Bethamcherla Bethamcherla_ARG 0.0 0SNI 0SNI 0SNI 0SNI 22/06/2024 21:00
10468 Nandyal Bethamcherla Bethamcherla 0.0 29.08 69.76 5.76 912.3 22/06/2024 23:00
12695 Nandyal Bethamcherla Rangapuram_ARG 0.0 0SNI 0SNI 0SNI 0SNI 22/06/2024 17:00
12128 Nandyal Panyam Panyam_ARG 0.0 0SNI 0SNI 0SNI 0SNI 22/06/2024 23:00
11283 Nandyal Panyam Gonavaram 0.0 27.98 69.74 0.0 0SNI 22/06/2024 23:00
12720 Nandyal Panyam Thogarchedu_ARG 0.0 0SNI 0SNI 0SNI 0SNI 22/06/2024 18:00
10474 Nandyal Gadivemula Gadivemula 0.0 29.12 74.71 0.0 975.5 22/06/2024 23:00
12699 Nandyal Gadivemula Durvesi_ARG 0.0 0SNI 0SNI 0SNI 0SNI 22/06/2024 23:00
10499 Nandyal Velugodu Velgodu 0.0 27.98 83.28 0.0 0 NA 22/06/2024 23:00
10467 Nandyal Bandi Atmakur Bandiatmakuru 0.0 28.67 76.14 0.0 0 NA 22/06/2024 23:00
11277 Nandyal Mahanandi Bukkapuram 0.0 27.58 76.32 0.0 0SNI 22/06/2024 23:00
10485 Nandyal Mahanandi Mahanandi 0.0 27.03 90.17 0.0 974.4 22/06/2024 23:00
10495 Nandyal Sirvel Sirvel 0.0 27.55 80.4 0.0 0 NA 22/06/2024 23:00
12730 Nandyal Sirvel Jeenepalle_ARG 0.0 0SNI 0SNI 0SNI 0SNI 22/06/2024 10:00
10476 Nandyal Gospadu Gospadu 0.0 36.15 59.94 0.6 975.5 22/06/2024 16:00
11258 Nandyal Banaganapalli Pasupula 0.0 29.43 66.23 3.18 0SNI 22/06/2024 23:00
10487 Nandyal Banaganapalli Nandavaram 0.0 28.82 74.36 2.92 0 NA 22/06/2024 23:00
10973 Nandyal Banaganapalli Palukur 0.0 30.95 67.28 14.17 973.5 22/06/2024 23:00
12693 Nandyal Banaganapalli Sankalapuram_ARG 0.0 0SNI 0SNI 0SNI 0SNI 22/06/2024 15:00
11262 Nandyal Dhone Jagadurthi 0.0 28.94 71.68 0.43 0SNI 22/06/2024 23:00
11264 Nandyal Dhone kothapalle 0.0 28.57 62.13 1.46 0SNI 22/06/2024 23:00
10091 Nandyal Dhone Dhone 0.0 29.31 70.09 2.15 0 NA 22/06/2024 23:00
12697 Kurnool Chippagiri Gummanur_ARG 0.0 0SNI 0SNI 0SNI 0SNI 22/06/2024 16:00
10496 Kurnool Tuggali Tuggali 0.0 27.13 76.97 0 NA 0 NA 22/06/2024 23:00
10491 Nandyal Peapully Peapally 0.0 27.36 65.38 6.37 0 NA 22/06/2024 23:00
12722 Nandyal Peapully Kalachatta_ARG 0.0 0SNI 0SNI 0SNI 0SNI 22/06/2024 16:00
12723 Nandyal Peapully Mettupalli_ARG 0.0 0SNI 0SNI 0SNI 0SNI 22/06/2024 23:00
11282 Nandyal Owk G.Singavaram 0.0 30.77 70.81 0.0 0SNI 22/06/2024 20:00
10488 Nandyal Owk Owk 0.0 31.12 62.9 5.93 0 NA 22/06/2024 23:00
11288 Nandyal Rudravaram Alamur 0.0 30.96 66.58 0.0 0SNI 22/06/2024 19:00
12727 Nandyal Rudravaram Chilakaloor_ARG 0.0 0SNI 0SNI 0SNI 0SNI 22/06/2024 23:00
12130 Nandyal Allagadda AllaGadda_ARG 0.0 0SNI 0SNI 0SNI 0SNI 22/06/2024 23:00
13169 Nandyal Allagadda OldBustandComplex_ARG 0.0 0SNI 0SNI 0SNI 0SNI 22/06/2024 23:00
11336 Kurnool Gudur K.Nagalapuram 0.0 27.98 77.53 0.0 0SNI 22/06/2024 23:00
11279 Nandyal Nandikotkur Brahmanakotkur 0.0 29.02 70.41 0.94 0SNI 22/06/2024 23:00
13151 Nandyal Nandikotkur ByreddyNagar_Electrical Substation_ARG 0.0 0SNI 0SNI 0SNI 0SNI 22/06/2024 23:00
10481 Nandyal Kothapalle Kothapalle 0.0 28.32 74.47 0.0 0 NA 22/06/2024 23:00
12708 Nandyal Kothapalle Kokkerancha_ARG 0.0 0SNI 0SNI 0SNI 0SNI 22/06/2024 23:00
12487 Nandyal Srisailam Sunnipenta_ARG 0.0 0SNI 0SNI 0SNI 0SNI 22/06/2024 18:00
10062 Nandyal Atmakur Atmakur 0.0 28.33 81.42 0.0 0 NA 22/06/2024 23:00
13158 Nandyal Atmakur Panchayathioffice_ARG 0.0 0SNI 0SNI 0SNI 0SNI 22/06/2024 23:00
10486 Nandyal Midthur Midthur 0.0 29.97 58.3 4.9 967.5 22/06/2024 23:00
11281 Kurnool Orvakal Orvakal 0.0 32.03 64.0 15.42 0SNI 22/06/2024 16:00
10430 Kurnool Kodumur Kodumur 0.0 28.25 70.89 11.27 962.7 22/06/2024 23:00
12704 Kurnool Kodumur Gorantla_ARG 0.0 0SNI 0SNI 0SNI 0SNI 22/06/2024 16:00
10478 Kurnool Holagunda Holagunda 0.0 26.42 75.02 0.0 0 NA 22/06/2024 23:00
12700 Kurnool Halaharvi Kokkarachedu_ARG 0.0 0SNI 0SNI 0SNI 0SNI 22/06/2024 23:00
12701 Kurnool Halaharvi Virupapuram_ARG 0.0 0SNI 0SNI 0SNI 0SNI 22/06/2024 23:00
11254 Kurnool Alur Mulagavelli 0.0 29.39 63.39 11.01 0SNI 22/06/2024 19:00
12691 Kurnool Aspari Nagarur_ARG 0.0 0SNI 0SNI 0SNI 0SNI 22/06/2024 23:00
12692 Kurnool Aspari Yatakallu_ARG 0.0 0SNI 0SNI 0SNI 0SNI 22/06/2024 23:00
10965 Kurnool Devanakonda Gundlakonda 0.0 0 NA 0 NA 0.0 0 NA 22/06/2024 22:00
10609 Prakasam Pedacherlopalle Pedacherlopalle 0.0 31.86 65.92 0.0 990.2 22/06/2024 23:00
12804 Prakasam Pedacherlopalle Pedda Erlapadu_ARG 0.0 0SNI 0SNI 0SNI 0SNI 22/06/2024 17:00
11779 Prakasam Chandrasekharapuram DG.Peta 0.0 0 NA 0 NA 8.78 0SNI 22/06/2024 23:00
11818 Prakasam Chandrasekharapuram Pedagogulapalli 0.0 0 NA 100.0 0.0 0SNI 22/06/2024 23:00
11798 Prakasam Pamur Botlagudur 0.0 0 NA 0 NA 4.3 0SNI 22/06/2024 23:00
10607 Prakasam Pamur Pamur 0.0 31.2 65.9 0.0 0 NA 22/06/2024 23:00
12803 Prakasam Pamur Pabuluvaripalli_ARG 0.0 0SNI 0SNI 0SNI 0SNI 22/06/2024 17:00
10622 Sri Potti Sriramulu Nellore Voletivaripalem Voletivaripalem 0.0 32.5 69.0 0 NA 0 NA 22/06/2024 14:00
12785 Sri Potti Sriramulu Nellore Kandukuru Madanagopalapuram_ARG 0.0 0SNI 0SNI 0SNI 0SNI 22/06/2024 23:00
12934 Sri Potti Sriramulu Nellore Kandukuru Divivaripalem_Panchayat_Office_ARG 0.0 0SNI 0SNI 0SNI 0SNI 22/06/2024 23:00
12940 Sri Potti Sriramulu Nellore Kandukuru MPP_School_Sri Nagar Colony_ARG 0.0 0SNI 0SNI 0SNI 0SNI 22/06/2024 23:00
10615 Prakasam Singarayakonda Singarayakonda 0.0 30.4 79.3 0 NA 998.0 22/06/2024 23:00
10602 Sri Potti Sriramulu Nellore Lingasamudram Pentrala 0.0 30.39 60.22 0 NA 996.0 22/06/2024 23:00
12517 Sri Potti Sriramulu Nellore Lingasamudram Lingasamudram_ARG 0.0 0SNI 0SNI 0SNI 0SNI 22/06/2024 23:00
11731 Y.S.R Pendlimarry Vemanapuram 0.0 26.07 100.0 0.0 0SNI 22/06/2024 23:00
10456 Y.S.R Pendlimarry Pendlimarri 0.0 33.24 53.87 4.21 979.2 22/06/2024 19:00
12653 Y.S.R Pendlimarry Chemala Penta_ARG 0.0 0SNI 0SNI 0SNI 0SNI 22/06/2024 16:00
12153 Y.S.R Vempalli Vempalli_ARG 0.0 0SNI 0SNI 0SNI 0SNI 22/06/2024 23:00
10084 Y.S.R Vempalli Vempalle 0.0 0 NA 0 NA 0.0 0 NA 22/06/2024 23:00
12157 Annamayya Sambepalle Sambepalle_ARG 0.0 0SNI 0SNI 0SNI 0SNI 22/06/2024 23:00
11923 Annamayya Rayachoti Masapet 0.0 28.55 60.14 0.0 0SNI 22/06/2024 23:00
10094 Annamayya Rayachoti Surakhavandla Palle 0.0 27.27 73.14 0.0 0 NA 22/06/2024 23:00
13346 Annamayya Rayachoti Market Urdu School_Rayachoti_ARG 0.0 0SNI 0SNI 0SNI 0SNI 22/06/2024 17:00
13347 Annamayya Rayachoti Z.P. School_Masapeta_ARG 0.0 0SNI 0SNI 0SNI 0SNI 22/06/2024 23:00
11742 Annamayya Veeraballe Sanipaya 0.0 0 NA 100.0 0.0 0SNI 22/06/2024 23:00
10466 Annamayya Veeraballe Veeraballe 0.0 28.43 81.93 0.0 0 NA 22/06/2024 23:00
12650 Annamayya Nandalur Chintakayala Palli_ARG 0.0 0SNI 0SNI 0SNI 0SNI 22/06/2024 23:00
10103 Annamayya Rajampet Brahmanapalli 0.0 0 NA 0 NA 0.0 0 NA 22/06/2024 23:00
12926 Annamayya Rajampet R&B_Office_ARG 0.0 0SNI 0SNI 0SNI 0SNI 22/06/2024 18:00
12939 Annamayya Rajampet ZP_School_Mannur_ARG 0.0 0SNI 0SNI 0SNI 0SNI 22/06/2024 23:00
10453 Annamayya Obulavaripalle Korlakunta 0.0 28.59 72.94 0.0 0 NA 22/06/2024 23:00
10104 Annamayya Kodur Gangarajupuram 0.0 27.42 89.88 0 NA 0 NA 22/06/2024 23:00
10971 Kurnool Mantralayam Mantralayam 0.0 29.58 68.27 0.08 977.9 22/06/2024 20:00
10480 Kurnool Kosigi Kosigi 0.0 35.67 49.29 3.27 957.7 22/06/2024 12:00
12707 Kurnool Kosigi Kamandoddi_ARG 0.0 0SNI 0SNI 0SNI 0SNI 22/06/2024 18:00
10482 Kurnool Kowthalam Kowthalam 0.0 0 NA 0 NA 0 NA 0 NA 22/06/2024 23:00
12710 Kurnool Kowthalam Karani_ARG 0.0 0SNI 0SNI 0SNI 0SNI 22/06/2024 15:00
12711 Kurnool Kowthalam Kuntanahal_ARG 0.0 0SNI 0SNI 0SNI 0SNI 22/06/2024 23:00
10492 Kurnool Peddakadubur Pedda Kadalur 0.0 31.66 69.9 6.8 0 NA 22/06/2024 17:00
13122 Kurnool Yemmiganur MPUPSchool_Venkatapuram_ARG 0.0 0SNI 0SNI 0SNI 0SNI 22/06/2024 23:00
12734 Kurnool Yemmiganur Divamdinne_ARG 0.0 0SNI 0SNI 0SNI 0SNI 22/06/2024 23:00
11260 Kurnool C.Belagal Kothakota 0.0 29.15 82.27 10.41 0SNI 22/06/2024 23:00
11261 Kurnool C.Belagal Gundrevula 0.0 31.49 62.11 9.12 0SNI 22/06/2024 18:00
10469 Kurnool C.Belagal C Belagal 0.0 0 NA 0 NA 0.0 0 NA 22/06/2024 23:00
11289 Nandyal Sanjamala Perusomala 0.0 31.31 59.47 0.0 0SNI 22/06/2024 20:00
10494 Nandyal Sanjamala Sanjamala 0.0 29.55 69.86 4.56 0 NA 22/06/2024 23:00
12705 Nandyal Kolimigundla Belum_ARG 0.0 0SNI 0SNI 0SNI 0SNI 22/06/2024 23:00
12732 Nandyal Uyyalawada R.Jambuladinne_ARG 0.0 0SNI 0SNI 0SNI 0SNI 22/06/2024 23:00
12131 Nandyal Chagalamarri Chagalamarri_ARG 0.0 0SNI 0SNI 0SNI 0SNI 22/06/2024 23:00
12568 Ananthapuramu D.Hirehal Muradi_ARG 0.0 0SNI 0SNI 0SNI 0SNI 22/06/2024 16:00
11438 Ananthapuramu Rayadurg Pallepalli 0.0 32.67 59.88 14.33 0SNI 22/06/2024 14:00
12986 Ananthapuramu Rayadurg EswarNagar_colony_ARG 0.0 0SNI 0SNI 0SNI 0SNI 22/06/2024 23:00
12992 Ananthapuramu Rayadurg Govt.Girls_HighSchool_ARG 0.0 0SNI 0SNI 0SNI 0SNI 22/06/2024 17:00
12993 Ananthapuramu Rayadurg Azad_Urdu_School_ARG 0.0 0SNI 0SNI 0SNI 0SNI 22/06/2024 23:00
12995 Ananthapuramu Rayadurg D.P.E.P_SchooI_ARG 0.0 0SNI 0SNI 0SNI 0SNI 22/06/2024 23:00
12595 Ananthapuramu Kanekal Ganigera_ARG 0.0 0SNI 0SNI 0SNI 0SNI 22/06/2024 12:00
10833 Ananthapuramu Bommanahal Bommanahal 0.0 26.51 79.22 0.17 0 NA 22/06/2024 23:00
10874 Ananthapuramu Vidapanakal Malapuram 0.0 28.18 61.03 12.91 0 NA 22/06/2024 23:00
12974 Ananthapuramu Guntakal L.P.No:75/86_MunicipalLayout _ARG 0.0 0SNI 0SNI 0SNI 0SNI 22/06/2024 23:00
12976 Ananthapuramu Guntakal SriRanga_TimberDepot_ARG 0.0 0SNI 0SNI 0SNI 0SNI 22/06/2024 16:00
12584 Ananthapuramu Guntakal Obulapuram_ARG 0.0 0SNI 0SNI 0SNI 0SNI 22/06/2024 16:00
12203 Ananthapuramu Peddavaduguru Peddavadugur_ARG 0.0 0SNI 0SNI 0SNI 0SNI 22/06/2024 22:00
12637 Ananthapuramu Yadiki Nagarur_ARG 0.0 0SNI 0SNI 0SNI 0SNI 22/06/2024 17:00
14295 Sri Sathya Sai Gandlapenta Gandlapenta 0.0 27.7 69.5 1.0 0 NA 22/06/2024 23:00
14296 Sri Sathya Sai Gandlapenta Thummalabylu 0.0 27.6 68.8 1.39 0 NA 22/06/2024 23:00
14297 Ananthapuramu Garladinne Kanampalli 0.0 29.29 63.4 0.0 0 NA 22/06/2024 23:00
14298 Ananthapuramu Garladinne Kotanka 0.0 29.2 62.79 2.9 0 NA 22/06/2024 23:00
14299 Ananthapuramu Gooty Engilibanda 0.0 28.2 73.09 2.5 0 NA 22/06/2024 23:00
14300 Ananthapuramu Gooty Utakallu 0.0 33.59 58.7 0.2 0 NA 22/06/2024 16:00
14303 Sri Sathya Sai Gorantla Mandalapalle 0.0 24.2 79.4 0.0 0 NA 22/06/2024 23:00
14070 East Godavari Tallapudi Malakapalle 0.0 29.79 84.0 0.2 0 NA 22/06/2024 23:00
14071 Eluru Unguturu Kakarlamudi 0.0 28.1 90.0 0.3 0 NA 22/06/2024 23:00
14072 West Godavari Yelamanchili Gumparru 0.0 29.79 83.3 0.0 0 NA 22/06/2024 23:00
14074 Eluru Agiripalli Kanasanapalli 0.0 28.5 68.9 0.0 0 NA 22/06/2024 23:00
14077 Eluru Kalidindi Korukollu 0.0 28.5 75.4 0.0 0 NA 22/06/2024 23:00
14078 Krishna Mopidevi Bodagunta 0.0 30.89 76.5 0.0 0 NA 22/06/2024 23:00
14080 Krishna Nagayalanka Etimoga 0.0 31.29 80.8 0.69 0 NA 22/06/2024 23:00
14081 Krishna Nandivada Polukonda 0.0 33.0 70.4 0.0 0 NA 22/06/2024 17:00
14082 Krishna Pamidimukkala Lankapalle Lanka (Ui) 0.0 28.7 78.5 0.0 0 NA 22/06/2024 23:00
14084 NTR Penuganchiprolu Navabupeta 0.0 34.2 70.69 0.0 0 NA 22/06/2024 16:00
14085 NTR Tiruvuru Munakulla 0.0 28.2 86.8 0.5 0 NA 22/06/2024 23:00
14086 Krishna Unguturu Atukuru Ss 3Km 0.0 34.5 63.79 1.2 0 NA 22/06/2024 15:00
14088 NTR Veerullapadu Nandaluru 0.0 29.0 79.3 0.2 0 NA 22/06/2024 23:00
14091 Bapatla Amarthalur Mulpur 0.0 28.5 81.4 0.0 0 NA 22/06/2024 23:00
14092 Bapatla Bapatla Appekatla 0.0 30.5 79.9 0.0 0 NA 22/06/2024 23:00
14093 Palnadu Bollapalli Gutlapalli 0.0 36.2 53.4 0.0 0 NA 22/06/2024 17:00
14094 Bapatla Cherukupalli Gudavalli 0.0 29.6 84.69 0 NA 0 NA 22/06/2024 23:00
14096 Palnadu Edlapadu Thurlapadu 0.0 30.5 70.69 0.0 0 NA 22/06/2024 23:00
14304 Sri Sathya Sai Gudibanda Kumbaranagehalli 0.0 25.89 74.69 0.69 0 NA 22/06/2024 23:00
14305 Ananthapuramu Guntakal Thimmapuram 0.0 27.89 66.19 2.59 0 NA 22/06/2024 23:00
14306 Sri Sathya Sai Kadiri Kalasamudram 0.0 28.2 61.2 0.5 0 NA 22/06/2024 23:00
14307 Ananthapuramu Kalyanadurg East Kodipalli 0.0 27.5 66.9 2.2 0 NA 22/06/2024 23:00
14308 Ananthapuramu Kalyanadurg Garudapuram 0.0 26.2 77.5 0.0 0 NA 22/06/2024 23:00
14309 Ananthapuramu Kalyanadurg Hulikal 0.0 26.29 75.59 0.0 0 NA 22/06/2024 23:00
14310 Ananthapuramu Kambadur Rallaanantapuram 0.0 32.7 57.7 1.1 0 NA 22/06/2024 17:00
10584 Sri Potti Sriramulu Nellore Vinjamur Vinjamur 0.0 0 NA 0 NA 0.0 0 NA 22/06/2024 23:00
11619 Sri Potti Sriramulu Nellore Duttalur Narrawada 0.0 0 NA 0 NA 1.97 0SNI 22/06/2024 18:00
10570 Sri Potti Sriramulu Nellore Marripadu Marripadu 0.0 31.65 69.15 0.0 985.8 22/06/2024 23:00
13298 Sri Potti Sriramulu Nellore Atmakur MPPSchool_Antharaya Yeni_ARG 0.0 0SNI 0SNI 0SNI 0SNI 22/06/2024 23:00
12735 Sri Potti Sriramulu Nellore Atmakur Narampeta_ARG 0.0 0SNI 0SNI 0SNI 0SNI 22/06/2024 23:00
11654 Sri Potti Sriramulu Nellore Anumasamudrampeta Chouta Bheemavaram 0.0 0 NA 0 NA 0.0 0SNI 22/06/2024 22:00
10557 Sri Potti Sriramulu Nellore Dagadarthi Dagadarthi 0.0 30.42 75.54 0.0 998.6 22/06/2024 23:00
12769 Sri Potti Sriramulu Nellore Vidavalur Kanchara Palem_ARG 0.0 0SNI 0SNI 0SNI 0SNI 22/06/2024 23:00
11745 Sri Potti Sriramulu Nellore Kodavalur Padmanabhasatram 0.0 0 NA 56.92 0.77 0SNI 22/06/2024 18:00
12282 Sri Potti Sriramulu Nellore Kodavalur Kodavalur_ARG 0.0 0SNI 0SNI 0SNI 0SNI 22/06/2024 23:00
12312 Sri Potti Sriramulu Nellore Chejerla Chejerla_ARG 0.0 0SNI 0SNI 0SNI 0SNI 22/06/2024 17:00
10078 Sri Potti Sriramulu Nellore Chejerla Adurupalli 0.0 29.84 77.62 0.0 0 NA 22/06/2024 23:00
11696 Sri Potti Sriramulu Nellore Ananthasagaram Revuru 0.0 30.87 67.84 0.0 0SNI 22/06/2024 23:00
11158 Sri Potti Sriramulu Nellore Rapur Gonupalle 0.0 31.5 65.49 2.92 0 NA 22/06/2024 23:00
11232 Sri Potti Sriramulu Nellore Rapur Rapur 0.0 0 NA 0 NA 0 NA 0SNI 22/06/2024 19:00
10574 Sri Potti Sriramulu Nellore Podalakur Podlakur 0.0 0 NA 0 NA 0.0 0 NA 22/06/2024 23:00
12756 Sri Potti Sriramulu Nellore Podalakur Ravula Yeruguntapalem_ARG 0.0 0SNI 0SNI 0SNI 0SNI 22/06/2024 23:00
12757 Sri Potti Sriramulu Nellore Podalakur Ammavaripalem_ARG 0.0 0SNI 0SNI 0SNI 0SNI 22/06/2024 23:00
12258 Sri Potti Sriramulu Nellore Nellore Rural Driver_Colony_ARG 0.0 0SNI 0SNI 0SNI 0SNI 22/06/2024 23:00
12264 Sri Potti Sriramulu Nellore Nellore Rural 220KV_APTRANSCO_ARG 0.0 0SNI 0SNI 0SNI 0SNI 22/06/2024 23:00
11664 Sri Potti Sriramulu Nellore Nellore Rural Padarupalle 0.0 30.97 68.41 3.7 0SNI 22/06/2024 21:00
12751 Sri Potti Sriramulu Nellore Nellore Rural Devarapalem_ARG 0.0 0SNI 0SNI 0SNI 0SNI 22/06/2024 23:00
12753 Sri Potti Sriramulu Nellore Nellore Rural Southmopur_ARG 0.0 0SNI 0SNI 0SNI 0SNI 22/06/2024 23:00
10569 Sri Potti Sriramulu Nellore Kovur Kovur 0.0 31.61 74.79 0 NA 0 NA 22/06/2024 21:00
10055 Sri Potti Sriramulu Nellore Muthukur Brahmadevam 0.0 32.5 74.2 0 NA 0 NA 22/06/2024 23:00
10051 Sri Potti Sriramulu Nellore Manubolu Manubolu 0.0 29.54 85.1 0.0 0 NA 22/06/2024 23:00
12749 Sri Potti Sriramulu Nellore Manubolu Kolanukuduru_ARG 0.0 0SNI 0SNI 0SNI 0SNI 22/06/2024 23:00
13280 Tirupati Gudur MunicipalOffice_ARG 0.0 0SNI 0SNI 0SNI 0SNI 22/06/2024 23:00
12768 Tirupati Venkatagiri Vardhana Pally_ARG 0.0 0SNI 0SNI 0SNI 0SNI 22/06/2024 10:00
10551 Tirupati Balayapalli Balayapalle 0.0 31.68 74.91 0 NA 0 NA 22/06/2024 20:00
12754 Tirupati Ozili Inugunta_ARG 0.0 0SNI 0SNI 0SNI 0SNI 22/06/2024 23:00
11155 Tirupati Chillakur Chinthavaram 0.0 30.2 75.7 1.0 0 NA 22/06/2024 23:00
10568 Tirupati Kota Vidyanagar 0.0 30.3 77.9 0 NA 0 NA 22/06/2024 23:00
10580 Tirupati Vakadu Vakadu 0.0 0 NA 0 NA 0 NA 0 NA 22/06/2024 23:00
12739 Tirupati Chittamur MPEL School_Kalugurthipadu_ARG 0.0 0SNI 0SNI 0SNI 0SNI 22/06/2024 23:00
13272 Tirupati Naidupet RDOOffice_ARG 0.0 0SNI 0SNI 0SNI 0SNI 22/06/2024 23:00
12750 Tirupati Naidupet Konetiraju Palem_ARG 0.0 0SNI 0SNI 0SNI 0SNI 22/06/2024 17:00
11727 Y.S.R Muddanur Uppalur 0.0 27.64 67.6 0.0 0SNI 22/06/2024 23:00
10450 Y.S.R Muddanur Muddanur 0.0 34.22 64.88 6.37 905.8 22/06/2024 16:00
10075 Y.S.R Simhadripuram Balapanur 0.0 29.74 58.59 5.76 978.9 22/06/2024 23:00
12657 Y.S.R Simhadripuram Jangamreddipalle_ARG 0.0 0SNI 0SNI 0SNI 0SNI 22/06/2024 23:00
11723 Y.S.R Lingala Ippatla 0.0 30.28 65.08 18.22 0SNI 22/06/2024 22:00
10449 Y.S.R Lingala Lingala 0.0 28.59 68.92 9.89 969.3 22/06/2024 23:00
10457 Y.S.R Pulivendula Pulivendla 0.0 28.77 66.82 4.3 974.6 22/06/2024 23:00
10578 Tirupati Tada Tada 0.0 0 NA 0 NA 0 NA 0 NA 22/06/2024 23:00
11722 Y.S.R Kondapuram Burujupalli 0.0 30.72 69.37 5.07 0SNI 22/06/2024 23:00
10074 Y.S.R Kondapuram Anantapuram 0.0 27.59 88.77 0.0 976.7 22/06/2024 23:00
11748 Y.S.R Mylavaram Talamanchi Patnam 0.0 34.39 48.38 16.27 0SNI 22/06/2024 14:00
11729 Y.S.R Peddamudiam Gundlakunta 0.0 29.77 76.89 0.0 0SNI 22/06/2024 23:00
12652 Y.S.R Peddamudiam Ulavapalli_ARG 0.0 0SNI 0SNI 0SNI 0SNI 22/06/2024 19:00
13353 Y.S.R Pulivendula Muncipal Office_ARG 0.0 0SNI 0SNI 0SNI 0SNI 22/06/2024 23:00
13354 Y.S.R Pulivendula Ramanappa high school_ARG 0.0 0SNI 0SNI 0SNI 0SNI 22/06/2024 23:00
13356 Y.S.R Pulivendula Rani thopula Park_ARG 0.0 0SNI 0SNI 0SNI 0SNI 22/06/2024 23:00
13358 Y.S.R Pulivendula SPDCL Divisional Engineer Office_ARG 0.0 0SNI 0SNI 0SNI 0SNI 22/06/2024 23:00
11683 Parvathipuram Manyam Kurupam Rastakuntabai 0.0 25.89 99.99 0.0 0SNI 22/06/2024 23:00
10353 Parvathipuram Manyam Kurupam Levidi 0.0 25.62 99.41 0.0 975.4 22/06/2024 23:00
11131 Parvathipuram Manyam Jiyyammavalasa Pedamerangi 0.0 27.87 77.43 0.0 990.0 22/06/2024 22:00
13115 Parvathipuram Manyam Parvathipuram MunicipalOffice_ARG 0.0 0SNI 0SNI 0SNI 0SNI 22/06/2024 23:00
11685 Parvathipuram Manyam Seethanagaram Burja 0.0 27.93 96.92 0.0 0SNI 22/06/2024 23:00
11135 Parvathipuram Manyam Salur Salur 0.0 25.45 100.0 0.0 984.4 22/06/2024 23:00
13097 Parvathipuram Manyam Salur GovtSchool_Gumadam_ARG 0.0 0SNI 0SNI 0SNI 0SNI 22/06/2024 22:00
10368 Parvathipuram Manyam Veeraghattam Veeraghattam 0.0 27.62 97.15 0.0 0 NA 22/06/2024 23:00
10363 Parvathipuram Manyam Seethampeta Seethampeta 0.0 26.47 100.0 0.0 986.4 22/06/2024 23:00
10187 Sri Sathya Sai Puttaparthy Puttaparthy 0.0 24.62 92.62 0.0 951.9 22/06/2024 23:00
12612 Sri Sathya Sai O.D Cheruvu Thummalakuntlapalli_ARG 0.0 0SNI 0SNI 0SNI 0SNI 22/06/2024 23:00
10853 Sri Sathya Sai Nallachervu Nallacheruvu 0.0 0 NA 0 NA 0.0 0 NA 22/06/2024 23:00
12607 Sri Sathya Sai Nallachervu Panthulacheruvu_ARG 0.0 0SNI 0SNI 0SNI 0SNI 22/06/2024 17:00
10432 Kurnool Maddikera (East) Maddikera East 0.0 27.11 63.01 0.0 0 NA 22/06/2024 23:00
12714 Kurnool Maddikera (East) Peravali_ARG 0.0 0SNI 0SNI 0SNI 0SNI 22/06/2024 23:00
10464 Annamayya T Sundupalle T Sundupalle 0.0 31.91 58.66 0.0 966.9 22/06/2024 18:00
14263 Y.S.R Sri Avadhutha Kasi Nayana Itigullapadu 0.0 30.29 69.5 2.0 0 NA 22/06/2024 23:00
14267 Annamayya T Sundupalle Gundlapalle 0.0 28.2 75.59 0.0 0 NA 22/06/2024 23:00
14079 NTR Mylavaram Chandrala 0.0 34.29 64.3 0.5 0 NA 22/06/2024 17:00
14320 Sri Sathya Sai Lepakshi Kodihalli 0.0 25.6 70.4 0.0 0 NA 22/06/2024 23:00
14321 Sri Sathya Sai Lepakshi Manepalle 0.0 23.89 87.3 0.0 0 NA 22/06/2024 23:00
14329 Sri Sathya Sai Nallachervu Maddimadugu 0.0 27.39 71.9 1.1 0 NA 22/06/2024 23:00
14330 Sri Sathya Sai Nallachervu Oravoy 0.0 27.6 72.3 0.0 0 NA 22/06/2024 23:00
14007 Parvathipuram Manyam Seethampeta Pedduru 0.0 27.1 88.4 0.0 0 NA 22/06/2024 23:00
14013 Parvathipuram Manyam Garugubilli ullibadra 0.0 28.0 89.5 0.2 0 NA 22/06/2024 23:00
14014 Parvathipuram Manyam Komarada Kummarigunta 0.0 27.0 90.3 0.0 0 NA 22/06/2024 23:00
14021 Parvathipuram Manyam Pachipenta Panuku valasa 0.0 26.6 90.19 0.4 0 NA 22/06/2024 23:00
14022 Parvathipuram Manyam Parvathipuram Tallaburidi 0.0 28.7 84.3 0.2 0 NA 22/06/2024 23:00
14023 Parvathipuram Manyam Salur Gangannadora Valasa 0.0 27.29 88.9 0.3 0 NA 22/06/2024 23:00
14041 Alluri Sitharama Raju Hukumpeta masada 0.0 28.79 72.5 2.09 0 NA 22/06/2024 13:00
14006 Parvathipuram Manyam Seethampeta Goyidi 0.0 26.89 90.19 0.0 0 NA 22/06/2024 23:00
10524 Chittoor Penumur Penumuru 0.0 26.84 81.64 0.0 962.0 22/06/2024 23:00
14408 Kurnool Maddikera (East) Burujula 0.0 27.79 70.8 0.0 0 NA 22/06/2024 23:00
14163 Prakasam Peddaraveedu Thokapalli 0.0 32.79 61.7 0.0 0 NA 22/06/2024 23:00
14208 Sri Potti Sriramulu Nellore Nellore Rural Madaraju Gudur 0.0 30.5 73.3 0.0 0 NA 22/06/2024 23:00
14239 Y.S.R Badvel Venkata Setti Palli 0.0 30.5 68.8 0.89 0 NA 22/06/2024 23:00
10980 Guntur Duggirala Duggirala 0.0 0 NA 0 NA 0.0 0 NA 22/06/2024 17:00
12866 Guntur Tenali Chinaravuru Park_ARG 0.0 0SNI 0SNI 0SNI 0SNI 22/06/2024 17:00
12671 Guntur Kakumanu Retur_ARG 0.0 0SNI 0SNI 0SNI 0SNI 22/06/2024 23:00
11912 Guntur Ponnur Mulukuduru 0.0 31.0 79.0 0.17 0SNI 22/06/2024 23:00
10412 Guntur Ponnur Ponnur 0.0 0 NA 0 NA 2.06 0 NA 22/06/2024 23:00
10977 Bapatla Amarthalur Amruthalur 0.0 29.86 79.2 0.0 999.5 22/06/2024 22:00
10988 Bapatla Vemuru Vemuru 0.0 28.38 81.15 0.0 0 NA 22/06/2024 22:00
11068 Krishna Pedaparupudi Pedaparupudi 0.0 29.78 89.02 0.0 1001.2 22/06/2024 23:00
11038 Krishna Kankipadu Kankipadu 0.0 26.45 100.0 0.0 0 NA 22/06/2024 23:00
11235 Krishna Kankipadu Madduru 0.0 26.38 94.38 0.0 0SNI 22/06/2024 23:00
11041 Krishna Vuyyuru Vuyyuru 0.0 34.9 61.44 0.0 995.7 22/06/2024 17:00
13256 Krishna Vuyyuru MunicipalOffice_ARG 0.0 0SNI 0SNI 0SNI 0SNI 22/06/2024 23:00
11067 Krishna Pedana Pedana 0.0 29.58 81.0 0.0 1000.9 22/06/2024 21:00
12686 Krishna Pedana Chevendra_ARG 0.0 0SNI 0SNI 0SNI 0SNI 22/06/2024 16:00
11239 Krishna Movva Kaza 0.0 35.86 56.18 0.0 0SNI 22/06/2024 16:00
11870 Krishna Ghantasala Ghantasala(A) 0.0 29.19 78.31 0.0 0SNI 22/06/2024 23:00
11236 Krishna Machilipatnam Chinnapuram 0.0 0 NA 0 NA 0 NA 0 NA 22/06/2024 23:00
10281 Krishna Machilipatnam Machilipatnam 0.0 30.6 78.7 0.0 1001.9 22/06/2024 23:00
12510 Kakinada Kakinada (Rural) Panduru_Pump_house_ARG 0.0 0SNI 0SNI 0SNI 0SNI 22/06/2024 23:00
12504 Kakinada Kakinada (Urban) GPT_For_Women_ARG 0.0 0SNI 0SNI 0SNI 0SNI 22/06/2024 23:00
11945 Kakinada Pedapudi Atchutapuratrayam 0.0 0 NA 0 NA 0 NA 0 NA 22/06/2024 23:00
10374 East Godavari Biccavolu Biccavolu 0.0 0 NA 0 NA 0.0 0 NA 22/06/2024 23:00
10375 East Godavari Biccavolu Komaripalem 0.0 28.7 90.97 0.25 999.7 22/06/2024 23:00
13089 East Godavari Anaparthi MPPSchool_savaram colony_ARG 0.0 0SNI 0SNI 0SNI 0SNI 22/06/2024 23:00
13090 East Godavari Anaparthi GirlsHighSchool_ARG 0.0 0SNI 0SNI 0SNI 0SNI 22/06/2024 23:00
13092 East Godavari Anaparthi SocialWelfarehostel_kothuru_ARG 0.0 0SNI 0SNI 0SNI 0SNI 22/06/2024 23:00
10185 East Godavari Kadiam Vemagiri 0.0 29.24 84.01 0.0 994.7 22/06/2024 23:00
11012 Dr. B.R.Ambedkar Konaseema Atreyapuram Atreyapuram 0.0 32.63 72.21 0.0 996.2 22/06/2024 18:00
12320 Dr. B.R.Ambedkar Konaseema Rayavaram Rayavaram_ARG 0.0 0SNI 0SNI 0SNI 0SNI 22/06/2024 23:00
10377 Kakinada Kajuluru Aryavatam 0.0 30.21 83.26 0.0 999.1 22/06/2024 19:00
10256 Dr. B.R.Ambedkar Konaseema Ramachandrapuram Ramachandrapuram 0.0 29.37 76.7 0.0 1000.0 22/06/2024 23:00
13127 Dr. B.R.Ambedkar Konaseema Ramachandrapuram MunicipalHighschool_Kothuru_ARG 0.0 0SNI 0SNI 0SNI 0SNI 22/06/2024 23:00
13130 Dr. B.R.Ambedkar Konaseema Ramachandrapuram Ch.Suranna nagar Municipal high school_ARG 0.0 0SNI 0SNI 0SNI 0SNI 22/06/2024 23:00
13132 Dr. B.R.Ambedkar Konaseema Ramachandrapuram Elementaryschool_Madhyakompalu_ARG 0.0 0SNI 0SNI 0SNI 0SNI 22/06/2024 23:00
12330 Dr. B.R.Ambedkar Konaseema Alamuru Alamuru_ARG 0.0 0SNI 0SNI 0SNI 0SNI 22/06/2024 23:00
11009 Dr. B.R.Ambedkar Konaseema Alamuru Choppela 0.0 28.33 89.92 0.0 999.2 22/06/2024 23:00
11029 Dr. B.R.Ambedkar Konaseema Ravulapalem Ethakota 0.0 29.58 94.54 0.0 999.8 22/06/2024 23:00
11942 Dr. B.R.Ambedkar Konaseema Kapileswarapuram Tatapudi 0.0 29.72 100.0 3.35 0SNI 22/06/2024 23:00
12326 Dr. B.R.Ambedkar Konaseema Kapileswarapuram Kapileswarapuram_ARG 0.0 0SNI 0SNI 0SNI 0SNI 22/06/2024 23:00
11018 Dr. B.R.Ambedkar Konaseema Kapileswarapuram Angara 0.0 36.75 64.96 11.7 0 NA 22/06/2024 17:00
11699 Kakinada Tallarevu Injaram 0.0 30.4 85.9 1.6 1002.4 22/06/2024 23:00
11033 Kakinada Tallarevu Chollangi Peta 0.0 0 NA 0 NA 0.0 0 NA 22/06/2024 23:00
13140 Dr. B.R.Ambedkar Konaseema Mummidivaram MPPSchool_Karapachintalapudi_ARG 0.0 0SNI 0SNI 0SNI 0SNI 22/06/2024 23:00
13143 Dr. B.R.Ambedkar Konaseema Mummidivaram MPPSchool_Somidevarapalem_ARG 0.0 0SNI 0SNI 0SNI 0SNI 22/06/2024 23:00
13145 Dr. B.R.Ambedkar Konaseema Mummidivaram MPPSchool_Agraharam_ARG 0.0 0SNI 0SNI